| time (UTC) | temp C | wind direction | speed KPH | gust KPH | rain 1hr cm | rain 24hr cm | rain mn cm | humidity % | barometer mb |
| 20260504100547 | 11 | 230 | 17.7 | 22.5 | 0.00 | 0.00 | 0.00 | 57 | 998.2 |
| 20260504100447 | 11 | 231 | 17.7 | 22.5 | 0.00 | 0.00 | 0.00 | 57 | 998.2 |
| 20260504100347 | 11 | 231 | 17.7 | 22.5 | 0.00 | 0.00 | 0.00 | 57 | 998.3 |
| 20260504100246 | 11 | 231 | 17.7 | 22.5 | 0.00 | 0.00 | 0.00 | 58 | 998.3 |
| 20260504100147 | 11 | 230 | 16.1 | 22.5 | 0.00 | 0.00 | 0.00 | 57 | 998.3 |
| 20260504081946 | 12 | 217 | 11.3 | 17.7 | 0.00 | 0.00 | 0.00 | 53 | 999.1 |
| 20260504081846 | 12 | 218 | 11.3 | 17.7 | 0.00 | 0.00 | 0.00 | 53 | 999.1 |
| 20260504081747 | 12 | 218 | 11.3 | 17.7 | 0.00 | 0.00 | 0.00 | 54 | 999.1 |
| 20260504081647 | 12 | 218 | 11.3 | 17.7 | 0.00 | 0.00 | 0.00 | 54 | 999.1 |
| 20260504081547 | 12 | 219 | 11.3 | 17.7 | 0.00 | 0.00 | 0.00 | 54 | 999.1 |
| 20260504081446 | 12 | 220 | 11.3 | 16.1 | 0.00 | 0.00 | 0.00 | 54 | 999.2 |
| 20260504081346 | 12 | 221 | 9.7 | 16.1 | 0.00 | 0.00 | 0.00 | 54 | 999.2 |
| 20260504081247 | 12 | 222 | 9.7 | 16.1 | 0.00 | 0.00 | 0.00 | 54 | 999.2 |
| 20260504081146 | 12 | 224 | 9.7 | 16.1 | 0.00 | 0.00 | 0.00 | 54 | 999.2 |
| 20260504081046 | 12 | 224 | 9.7 | 16.1 | 0.00 | 0.00 | 0.00 | 54 | 999.2 |
| 20260504080947 | 12 | 226 | 9.7 | 16.1 | 0.00 | 0.00 | 0.00 | 54 | 999.2 |
| 20260504080847 | 12 | 227 | 9.7 | 16.1 | 0.00 | 0.00 | 0.00 | 54 | 999.3 |
| 20260504080746 | 12 | 229 | 9.7 | 16.1 | 0.00 | 0.00 | 0.00 | 54 | 999.3 |
| 20260504080646 | 12 | 230 | 11.3 | 14.5 | 0.00 | 0.00 | 0.00 | 54 | 999.4 |
| 20260504080547 | 12 | 231 | 11.3 | 14.5 | 0.00 | 0.00 | 0.00 | 54 | 999.5 |
| 20260504080447 | 12 | 232 | 11.3 | 14.5 | 0.00 | 0.00 | 0.00 | 54 | 999.5 |
| 20260504080346 | 12 | 232 | 11.3 | 16.1 | 0.00 | 0.00 | 0.00 | 54 | 999.6 |
| 20260504080246 | 12 | 232 | 11.3 | 16.1 | 0.00 | 0.00 | 0.00 | 54 | 999.6 |
| 20260504080146 | 12 | 232 | 11.3 | 16.1 | 0.00 | 0.00 | 0.00 | 54 | 999.6 |
| 20260504070347 | 12 | 232 | 8.0 | 14.5 | 0.00 | 0.00 | 0.00 | 52 | 1000.8 |
| 20260504070246 | 12 | 232 | 9.7 | 14.5 | 0.00 | 0.00 | 0.00 | 52 | 1000.8 |
| 20260504070146 | 12 | 232 | 8.0 | 14.5 | 0.00 | 0.00 | 0.00 | 51 | 1000.8 |
| 20260504060247 | 11 | 210 | 8.0 | 11.3 | 0.00 | 0.00 | 0.00 | 52 | 1001.7 |
| 20260504060146 | 11 | 210 | 8.0 | 11.3 | 0.00 | 0.00 | 0.00 | 53 | 1001.7 |
| 20260504050746 | 11 | 208 | 3.2 | 9.7 | 0.00 | 0.00 | 0.00 | 54 | 1002.5 |
| 20260504050645 | 11 | 207 | 3.2 | 9.7 | 0.00 | 0.00 | 0.00 | 54 | 1002.6 |
| 20260504050546 | 11 | 206 | 3.2 | 9.7 | 0.00 | 0.00 | 0.00 | 54 | 1002.5 |
| 20260504050447 | 11 | 206 | 1.6 | 9.7 | 0.00 | 0.00 | 0.00 | 54 | 1002.5 |
| 20260504050346 | 11 | 207 | 1.6 | 9.7 | 0.00 | 0.00 | 0.00 | 54 | 1002.5 |
| 20260504050246 | 10 | 209 | 1.6 | 9.7 | 0.00 | 0.00 | 0.00 | 55 | 1002.6 |
| 20260504050146 | 10 | 210 | 0.0 | 8.0 | 0.00 | 0.00 | 0.00 | 56 | 1002.6 |
| 20260504045946 | 10 | 192 | 1.6 | 4.8 | 0.00 | 0.00 | 0.00 | 57 | 1002.7 |
| 20260504045845 | 10 | 187 | 1.6 | 4.8 | 0.00 | 0.00 | 0.00 | 57 | 1002.7 |
| 20260504045745 | 10 | 188 | 1.6 | 4.8 | 0.00 | 0.00 | 0.00 | 57 | 1002.7 |
| 20260504045646 | 10 | 190 | 1.6 | 4.8 | 0.00 | 0.00 | 0.00 | 57 | 1002.8 |
| 20260504045546 | 10 | 191 | 1.6 | 4.8 | 0.00 | 0.00 | 0.00 | 58 | 1002.8 |
| 20260504045445 | 10 | 191 | 1.6 | 4.8 | 0.00 | 0.00 | 0.00 | 58 | 1002.8 |
| 20260504045346 | 10 | 191 | 1.6 | 4.8 | 0.00 | 0.00 | 0.00 | 57 | 1002.8 |
| 20260504045246 | 10 | 191 | 3.2 | 4.8 | 0.00 | 0.00 | 0.00 | 57 | 1002.7 |
| 20260504045146 | 10 | 191 | 3.2 | 4.8 | 0.00 | 0.00 | 0.00 | 57 | 1002.8 |
| 20260504045045 | 10 | 192 | 1.6 | 4.8 | 0.00 | 0.00 | 0.00 | 57 | 1002.8 |
| 20260504044946 | 10 | 193 | 1.6 | 4.8 | 0.00 | 0.00 | 0.00 | 57 | 1002.7 |
| 20260504044846 | 10 | 194 | 1.6 | 4.8 | 0.00 | 0.00 | 0.00 | 57 | 1002.8 |
| 20260504044746 | 10 | 195 | 1.6 | 4.8 | 0.00 | 0.00 | 0.00 | 57 | 1002.8 |
| 20260504044645 | 10 | 194 | 1.6 | 4.8 | 0.00 | 0.00 | 0.00 | 57 | 1002.8 |
| 20260504044546 | 10 | 192 | 1.6 | 4.8 | 0.00 | 0.00 | 0.00 | 57 | 1002.8 |
| 20260504044446 | 10 | 191 | 0.0 | 4.8 | 0.00 | 0.00 | 0.00 | 57 | 1002.8 |
| 20260504044346 | 10 | 195 | 0.0 | 3.2 | 0.00 | 0.00 | 0.00 | 57 | 1002.8 |
| 20260504044245 | 10 | 198 | 0.0 | 3.2 | 0.00 | 0.00 | 0.00 | 57 | 1002.8 |
| 20260504044145 | 10 | 200 | 0.0 | 4.8 | 0.00 | 0.00 | 0.00 | 57 | 1002.8 |
| 20260504044045 | 10 | 199 | 0.0 | 4.8 | 0.00 | 0.00 | 0.00 | 57 | 1002.8 |
| 20260504043946 | 10 | 199 | 1.6 | 4.8 | 0.00 | 0.00 | 0.00 | 57 | 1002.9 |
| 20260504043846 | 10 | 192 | 1.6 | 6.4 | 0.00 | 0.00 | 0.00 | 57 | 1002.9 |
| 20260504043746 | 10 | 188 | 1.6 | 6.4 | 0.00 | 0.00 | 0.00 | 57 | 1002.9 |
| 20260504043645 | 10 | 186 | 1.6 | 6.4 | 0.00 | 0.00 | 0.00 | 57 | 1002.9 |
| 20260504043546 | 10 | 187 | 1.6 | 6.4 | 0.00 | 0.00 | 0.00 | 57 | 1003.0 |
| 20260504043447 | 10 | 187 | 3.2 | 6.4 | 0.00 | 0.00 | 0.00 | 57 | 1002.9 |
| 20260504043346 | 11 | 186 | 3.2 | 6.4 | 0.00 | 0.00 | 0.00 | 56 | 1003.0 |
| 20260504043245 | 11 | 185 | 3.2 | 6.4 | 0.00 | 0.00 | 0.00 | 56 | 1003.0 |
| 20260504043145 | 11 | 183 | 1.6 | 6.4 | 0.00 | 0.00 | 0.00 | 56 | 1003.0 |
| 20260504043045 | 10 | 183 | 1.6 | 6.4 | 0.00 | 0.00 | 0.00 | 56 | 1003.0 |
| 20260504042946 | 10 | 182 | 1.6 | 6.4 | 0.00 | 0.00 | 0.00 | 56 | 1003.0 |
| 20260504042846 | 10 | 183 | 1.6 | 4.8 | 0.00 | 0.00 | 0.00 | 56 | 1003.1 |
| 20260504042746 | 10 | 185 | 1.6 | 4.8 | 0.00 | 0.00 | 0.00 | 57 | 1003.1 |
| 20260504042645 | 10 | 186 | 1.6 | 4.8 | 0.00 | 0.00 | 0.00 | 57 | 1003.1 |
| 20260504042546 | 10 | 186 | 1.6 | 4.8 | 0.00 | 0.00 | 0.00 | 57 | 1003.1 |
| 20260504042446 | 10 | 184 | 0.0 | 4.8 | 0.00 | 0.00 | 0.00 | 57 | 1003.0 |
| 20260504042345 | 10 | 184 | 0.0 | 4.8 | 0.00 | 0.00 | 0.00 | 57 | 1003.1 |
| 20260504042246 | 10 | 186 | 0.0 | 4.8 | 0.00 | 0.00 | 0.00 | 58 | 1003.1 |
| 20260504042146 | 10 | 187 | 1.6 | 6.4 | 0.00 | 0.00 | 0.00 | 58 | 1003.2 |
| 20260504042045 | 10 | 188 | 1.6 | 6.4 | 0.00 | 0.00 | 0.00 | 58 | 1003.1 |
| 20260504041946 | 10 | 186 | 1.6 | 6.4 | 0.00 | 0.00 | 0.00 | 58 | 1003.2 |
| 20260504041847 | 10 | 184 | 1.6 | 6.4 | 0.00 | 0.00 | 0.00 | 58 | 1003.2 |
| 20260504041745 | 10 | 184 | 1.6 | 6.4 | 0.00 | 0.00 | 0.00 | 58 | 1003.2 |
| 20260504041645 | 10 | 184 | 1.6 | 6.4 | 0.00 | 0.00 | 0.00 | 58 | 1003.2 |
| 20260504041545 | 10 | 184 | 1.6 | 6.4 | 0.00 | 0.00 | 0.00 | 58 | 1003.3 |
| 20260504041446 | 10 | 184 | 1.6 | 6.4 | 0.00 | 0.00 | 0.00 | 57 | 1003.3 |
| 20260504041346 | 10 | 184 | 1.6 | 6.4 | 0.00 | 0.00 | 0.00 | 57 | 1003.2 |
| 20260504041245 | 10 | 184 | 1.6 | 6.4 | 0.00 | 0.00 | 0.00 | 57 | 1003.2 |
| 20260504041145 | 10 | 182 | 1.6 | 6.4 | 0.00 | 0.00 | 0.00 | 57 | 1003.3 |
| 20260504041045 | 10 | 179 | 1.6 | 6.4 | 0.00 | 0.00 | 0.00 | 57 | 1003.3 |
| 20260504040946 | 10 | 178 | 0.0 | 6.4 | 0.00 | 0.00 | 0.00 | 57 | 1003.3 |
| 20260504040846 | 10 | 200 | 0.0 | 1.6 | 0.00 | 0.00 | 0.00 | 57 | 1003.4 |
| 20260504040746 | 10 | 208 | 0.0 | 1.6 | 0.00 | 0.00 | 0.00 | 58 | 1003.4 |
| 20260504040645 | 10 | 0 | 0.0 | 0.0 | 0.00 | 0.00 | 0.00 | 57 | 1003.5 |
| 20260504040546 | 10 | 219 | 0.0 | 1.6 | 0.00 | 0.00 | 0.00 | 57 | 1003.4 |
| 20260504040446 | 10 | 221 | 0.0 | 3.2 | 0.00 | 0.00 | 0.00 | 57 | 1003.4 |
| 20260504040345 | 10 | 221 | 0.0 | 3.2 | 0.00 | 0.00 | 0.00 | 57 | 1003.5 |
| 20260504040245 | 10 | 221 | 0.0 | 3.2 | 0.00 | 0.00 | 0.00 | 56 | 1003.5 |
| 20260504040145 | 11 | 221 | 0.0 | 3.2 | 0.00 | 0.00 | 0.00 | 56 | 1003.6 |
| 20260504040046 | 11 | 221 | 0.0 | 3.2 | 0.00 | 0.00 | 0.00 | 56 | 1003.6 |
| 20260504035945 | 11 | 221 | 0.0 | 3.2 | 0.00 | 0.00 | 0.00 | 55 | 1003.6 |
| 20260504035845 | 11 | 221 | 0.0 | 3.2 | 0.00 | 0.00 | 0.00 | 55 | 1003.6 |
| 20260504035746 | 11 | 221 | 0.0 | 3.2 | 0.00 | 0.00 | 0.00 | 55 | 1003.6 |
| 20260504035646 | 11 | 221 | 0.0 | 3.2 | 0.00 | 0.00 | 0.00 | 56 | 1003.6 |
| 20260504035545 | 10 | 222 | 0.0 | 3.2 | 0.00 | 0.00 | 0.00 | 56 | 1003.6 |
| 20260504035446 | 10 | 225 | 0.0 | 1.6 | 0.00 | 0.00 | 0.00 | 56 | 1003.6 |
| 20260504035346 | 10 | 225 | 0.0 | 1.6 | 0.00 | 0.00 | 0.00 | 56 | 1003.6 |
| 20260504035245 | 10 | 225 | 0.0 | 1.6 | 0.00 | 0.00 | 0.00 | 56 | 1003.6 |
| 20260504035145 | 10 | 225 | 0.0 | 1.6 | 0.00 | 0.00 | 0.00 | 56 | 1003.7 |
| 20260504035045 | 11 | 225 | 0.0 | 1.6 | 0.00 | 0.00 | 0.00 | 55 | 1003.7 |
| 20260504034946 | 11 | 225 | 0.0 | 1.6 | 0.00 | 0.00 | 0.00 | 55 | 1003.7 |
| 20260504034846 | 11 | 225 | 0.0 | 1.6 | 0.00 | 0.00 | 0.00 | 55 | 1003.7 |
| 20260504034746 | 11 | 179 | 0.0 | 3.2 | 0.00 | 0.00 | 0.00 | 55 | 1003.7 |
| 20260504034645 | 11 | 174 | 0.0 | 3.2 | 0.00 | 0.00 | 0.00 | 55 | 1003.8 |
| 20260504034546 | 10 | 172 | 0.0 | 3.2 | 0.00 | 0.00 | 0.00 | 56 | 1003.8 |
| 20260504034446 | 10 | 171 | 0.0 | 4.8 | 0.00 | 0.00 | 0.00 | 57 | 1003.8 |
| 20260504034345 | 10 | 173 | 1.6 | 4.8 | 0.00 | 0.00 | 0.00 | 57 | 1003.8 |
| 20260504034246 | 10 | 173 | 1.6 | 4.8 | 0.00 | 0.00 | 0.00 | 56 | 1003.9 |
| 20260504034146 | 11 | 174 | 1.6 | 4.8 | 0.00 | 0.00 | 0.00 | 57 | 1003.9 |
| 20260504034045 | 11 | 176 | 1.6 | 4.8 | 0.00 | 0.00 | 0.00 | 57 | 1003.9 |
| 20260504033945 | 11 | 176 | 1.6 | 4.8 | 0.00 | 0.00 | 0.00 | 56 | 1003.8 |
| 20260504033846 | 11 | 176 | 1.6 | 4.8 | 0.00 | 0.00 | 0.00 | 56 | 1003.9 |
| 20260504033746 | 11 | 176 | 1.6 | 4.8 | 0.00 | 0.00 | 0.00 | 56 | 1003.9 |
| 20260504033645 | 11 | 176 | 1.6 | 4.8 | 0.00 | 0.00 | 0.00 | 56 | 1003.9 |
| 20260504033545 | 11 | 176 | 1.6 | 4.8 | 0.00 | 0.00 | 0.00 | 56 | 1003.9 |
| 20260504033445 | 11 | 177 | 1.6 | 4.8 | 0.00 | 0.00 | 0.00 | 56 | 1003.8 |
| 20260504033347 | 11 | 178 | 1.6 | 4.8 | 0.00 | 0.00 | 0.00 | 56 | 1003.8 |
| 20260504033245 | 10 | 182 | 0.0 | 4.8 | 0.00 | 0.00 | 0.00 | 57 | 1003.9 |
| 20260504033145 | 10 | 185 | 0.0 | 4.8 | 0.00 | 0.00 | 0.00 | 57 | 1003.9 |
| 20260504033045 | 10 | 0 | 0.0 | 0.0 | 0.00 | 0.00 | 0.00 | 57 | 1003.9 |
| 20260504032945 | 10 | 0 | 0.0 | 0.0 | 0.00 | 0.00 | 0.00 | 57 | 1003.9 |
| 20260504032846 | 10 | 0 | 0.0 | 0.0 | 0.00 | 0.00 | 0.00 | 57 | 1003.9 |
| 20260504032745 | 11 | 0 | 0.0 | 0.0 | 0.00 | 0.00 | 0.00 | 57 | 1004.0 |
| 20260504032645 | 11 | 0 | 0.0 | 0.0 | 0.00 | 0.00 | 0.00 | 56 | 1004.0 |
| 20260504032546 | 11 | 0 | 0.0 | 0.0 | 0.00 | 0.00 | 0.00 | 56 | 1004.0 |
| 20260504032445 | 11 | 0 | 0.0 | 0.0 | 0.00 | 0.00 | 0.00 | 56 | 1004.0 |
| 20260504032346 | 11 | 0 | 0.0 | 0.0 | 0.00 | 0.00 | 0.00 | 56 | 1004.0 |
| 20260504032245 | 11 | 0 | 0.0 | 0.0 | 0.00 | 0.00 | 0.00 | 56 | 1004.0 |
| 20260504032145 | 11 | 0 | 0.0 | 0.0 | 0.00 | 0.00 | 0.00 | 55 | 1004.0 |
| 20260504032045 | 11 | 0 | 0.0 | 0.0 | 0.00 | 0.00 | 0.00 | 55 | 1004.1 |
| 20260504031945 | 11 | 0 | 0.0 | 0.0 | 0.00 | 0.00 | 0.00 | 54 | 1004.1 |
| 20260504031846 | 11 | 0 | 0.0 | 0.0 | 0.00 | 0.00 | 0.00 | 54 | 1004.1 |
| 20260504031745 | 11 | 0 | 0.0 | 0.0 | 0.00 | 0.00 | 0.00 | 54 | 1004.1 |
| 20260504031645 | 11 | 0 | 0.0 | 0.0 | 0.00 | 0.00 | 0.00 | 53 | 1004.1 |
| 20260504031546 | 11 | 0 | 0.0 | 0.0 | 0.00 | 0.00 | 0.00 | 52 | 1004.1 |
| 20260504031446 | 11 | 0 | 0.0 | 0.0 | 0.00 | 0.00 | 0.00 | 52 | 1004.1 |
| 20260504031345 | 11 | 0 | 0.0 | 0.0 | 0.00 | 0.00 | 0.00 | 52 | 1004.1 |
| 20260504031245 | 11 | 0 | 0.0 | 0.0 | 0.00 | 0.00 | 0.00 | 52 | 1004.1 |
| 20260504031145 | 12 | 0 | 0.0 | 0.0 | 0.00 | 0.00 | 0.00 | 52 | 1004.2 |
| 20260504031045 | 12 | 0 | 0.0 | 0.0 | 0.00 | 0.00 | 0.00 | 52 | 1004.1 |
| 20260504030946 | 12 | 0 | 0.0 | 0.0 | 0.00 | 0.00 | 0.00 | 52 | 1004.1 |
| 20260504030845 | 11 | 142 | 0.0 | 1.6 | 0.00 | 0.00 | 0.00 | 52 | 1004.2 |
| 20260504030745 | 11 | 142 | 0.0 | 1.6 | 0.00 | 0.00 | 0.00 | 52 | 1004.1 |
| 20260504030645 | 11 | 142 | 0.0 | 1.6 | 0.00 | 0.00 | 0.00 | 52 | 1004.2 |
| 20260504030547 | 12 | 142 | 0.0 | 1.6 | 0.00 | 0.00 | 0.00 | 52 | 1004.2 |
| 20260504030445 | 12 | 142 | 0.0 | 1.6 | 0.00 | 0.00 | 0.00 | 52 | 1004.2 |
| 20260504030345 | 12 | 142 | 0.0 | 1.6 | 0.00 | 0.00 | 0.00 | 52 | 1004.2 |
| 20260504030245 | 12 | 142 | 0.0 | 1.6 | 0.00 | 0.00 | 0.00 | 52 | 1004.2 |
| 20260504030146 | 12 | 142 | 0.0 | 1.6 | 0.00 | 0.00 | 0.00 | 52 | 1004.2 |
| 20260504030045 | 12 | 142 | 0.0 | 1.6 | 0.00 | 0.00 | 0.00 | 51 | 1004.2 |
| 20260504025945 | 12 | 142 | 0.0 | 1.6 | 0.00 | 0.00 | 0.00 | 51 | 1004.3 |
| 20260504025845 | 12 | 0 | 0.0 | 0.0 | 0.00 | 0.00 | 0.00 | 51 | 1004.3 |
| 20260504025745 | 12 | 0 | 0.0 | 0.0 | 0.00 | 0.00 | 0.00 | 51 | 1004.3 |
| 20260504025645 | 12 | 0 | 0.0 | 0.0 | 0.00 | 0.00 | 0.00 | 50 | 1004.3 |
| 20260504025545 | 12 | 0 | 0.0 | 0.0 | 0.00 | 0.00 | 0.00 | 50 | 1004.3 |
| 20260504025445 | 12 | 0 | 0.0 | 0.0 | 0.00 | 0.00 | 0.00 | 50 | 1004.3 |
| 20260504025345 | 12 | 0 | 0.0 | 0.0 | 0.00 | 0.00 | 0.00 | 51 | 1004.3 |
| 20260504025246 | 12 | 0 | 0.0 | 0.0 | 0.00 | 0.00 | 0.00 | 51 | 1004.3 |
| 20260504025145 | 12 | 0 | 0.0 | 0.0 | 0.00 | 0.00 | 0.00 | 51 | 1004.3 |
| 20260504025045 | 12 | 0 | 0.0 | 0.0 | 0.00 | 0.00 | 0.00 | 51 | 1004.2 |
| 20260504024945 | 12 | 0 | 0.0 | 0.0 | 0.00 | 0.00 | 0.00 | 51 | 1004.3 |
| 20260504024846 | 12 | 0 | 0.0 | 0.0 | 0.00 | 0.00 | 0.00 | 52 | 1004.3 |
| 20260504024745 | 12 | 0 | 0.0 | 0.0 | 0.00 | 0.00 | 0.00 | 50 | 1004.3 |
| 20260504024645 | 12 | 0 | 0.0 | 0.0 | 0.00 | 0.00 | 0.00 | 50 | 1004.3 |
| 20260504024545 | 12 | 173 | 0.0 | 1.6 | 0.00 | 0.00 | 0.00 | 50 | 1004.3 |
| 20260504024445 | 12 | 174 | 0.0 | 3.2 | 0.00 | 0.00 | 0.00 | 50 | 1004.3 |
| 20260504024345 | 12 | 175 | 0.0 | 3.2 | 0.00 | 0.00 | 0.00 | 50 | 1004.4 |
| 20260504024245 | 12 | 175 | 0.0 | 3.2 | 0.00 | 0.00 | 0.00 | 50 | 1004.3 |
| 20260504024145 | 12 | 175 | 0.0 | 3.2 | 0.00 | 0.00 | 0.00 | 50 | 1004.4 |
| 20260504024046 | 12 | 175 | 0.0 | 3.2 | 0.00 | 0.00 | 0.00 | 49 | 1004.3 |
| 20260504023945 | 13 | 175 | 0.0 | 3.2 | 0.00 | 0.00 | 0.00 | 49 | 1004.4 |
| 20260504023845 | 13 | 175 | 0.0 | 3.2 | 0.00 | 0.00 | 0.00 | 49 | 1004.4 |
| 20260504023745 | 13 | 175 | 0.0 | 3.2 | 0.00 | 0.00 | 0.00 | 48 | 1004.4 |
| 20260504023646 | 13 | 175 | 0.0 | 3.2 | 0.00 | 0.00 | 0.00 | 48 | 1004.4 |
| 20260504023545 | 13 | 175 | 0.0 | 3.2 | 0.00 | 0.00 | 0.00 | 48 | 1004.3 |
| 20260504023445 | 13 | 177 | 0.0 | 3.2 | 0.00 | 0.00 | 0.00 | 47 | 1004.4 |
| 20260504023345 | 13 | 0 | 0.0 | 0.0 | 0.00 | 0.00 | 0.00 | 47 | 1004.4 |
| 20260504023246 | 13 | 0 | 0.0 | 0.0 | 0.00 | 0.00 | 0.00 | 46 | 1004.4 |
| 20260504023145 | 13 | 0 | 0.0 | 0.0 | 0.00 | 0.00 | 0.00 | 46 | 1004.4 |
| 20260504023045 | 13 | 0 | 0.0 | 0.0 | 0.00 | 0.00 | 0.00 | 46 | 1004.4 |
| 20260504022945 | 13 | 0 | 0.0 | 0.0 | 0.00 | 0.00 | 0.00 | 46 | 1004.3 |
| 20260504022844 | 13 | 0 | 0.0 | 0.0 | 0.00 | 0.00 | 0.00 | 46 | 1004.3 |
| 20260504022746 | 13 | 0 | 0.0 | 0.0 | 0.00 | 0.00 | 0.00 | 46 | 1004.3 |
| 20260504022645 | 13 | 0 | 0.0 | 0.0 | 0.00 | 0.00 | 0.00 | 46 | 1004.3 |
| 20260504022545 | 14 | 0 | 0.0 | 0.0 | 0.00 | 0.00 | 0.00 | 45 | 1004.3 |
| 20260504022445 | 14 | 0 | 0.0 | 0.0 | 0.00 | 0.00 | 0.00 | 45 | 1004.4 |
| 20260504022345 | 14 | 0 | 0.0 | 0.0 | 0.00 | 0.00 | 0.00 | 45 | 1004.3 |
| 20260504022245 | 14 | 0 | 0.0 | 0.0 | 0.00 | 0.00 | 0.00 | 45 | 1004.3 |
| 20260504022145 | 14 | 0 | 0.0 | 0.0 | 0.00 | 0.00 | 0.00 | 45 | 1004.3 |
| 20260504022045 | 14 | 0 | 0.0 | 0.0 | 0.00 | 0.00 | 0.00 | 45 | 1004.4 |
| 20260504021945 | 14 | 0 | 0.0 | 0.0 | 0.00 | 0.00 | 0.00 | 45 | 1004.3 |
| 20260504021845 | 14 | 0 | 0.0 | 0.0 | 0.00 | 0.00 | 0.00 | 45 | 1004.3 |
| 20260504021745 | 14 | 0 | 0.0 | 0.0 | 0.00 | 0.00 | 0.00 | 44 | 1004.3 |
| 20260504021646 | 14 | 0 | 0.0 | 0.0 | 0.00 | 0.00 | 0.00 | 45 | 1004.2 |
| 20260504021545 | 14 | 0 | 0.0 | 0.0 | 0.00 | 0.00 | 0.00 | 45 | 1004.3 |
| 20260504021445 | 14 | 0 | 0.0 | 0.0 | 0.00 | 0.00 | 0.00 | 45 | 1004.2 |
| 20260504021345 | 13 | 0 | 0.0 | 0.0 | 0.00 | 0.00 | 0.00 | 46 | 1004.2 |
| 20260504021245 | 13 | 0 | 0.0 | 0.0 | 0.00 | 0.00 | 0.00 | 46 | 1004.3 |
| 20260504021145 | 13 | 0 | 0.0 | 0.0 | 0.00 | 0.00 | 0.00 | 46 | 1004.3 |
| 20260504021045 | 13 | 0 | 0.0 | 0.0 | 0.00 | 0.00 | 0.00 | 46 | 1004.3 |
| 20260504020944 | 13 | 0 | 0.0 | 0.0 | 0.00 | 0.00 | 0.00 | 46 | 1004.3 |
| 20260504020844 | 13 | 0 | 0.0 | 0.0 | 0.00 | 0.00 | 0.00 | 46 | 1004.3 |
| 20260504020745 | 13 | 0 | 0.0 | 0.0 | 0.00 | 0.00 | 0.00 | 46 | 1004.3 |
| 20260504020645 | 13 | 0 | 0.0 | 0.0 | 0.00 | 0.00 | 0.00 | 46 | 1004.3 |
| 20260504020545 | 13 | 0 | 0.0 | 0.0 | 0.00 | 0.00 | 0.00 | 46 | 1004.3 |
| 20260504020446 | 13 | 0 | 0.0 | 0.0 | 0.00 | 0.00 | 0.00 | 45 | 1004.3 |
| 20260504020346 | 14 | 0 | 0.0 | 0.0 | 0.00 | 0.00 | 0.00 | 45 | 1004.3 |
| 20260504020245 | 14 | 0 | 0.0 | 0.0 | 0.00 | 0.00 | 0.00 | 45 | 1004.3 |
| 20260504020145 | 14 | 0 | 0.0 | 0.0 | 0.00 | 0.00 | 0.00 | 45 | 1004.4 |
| 20260504020045 | 14 | 0 | 0.0 | 0.0 | 0.00 | 0.00 | 0.00 | 45 | 1004.3 |
| 20260504015944 | 14 | 0 | 0.0 | 0.0 | 0.00 | 0.00 | 0.00 | 44 | 1004.4 |
| 20260504015845 | 14 | 0 | 0.0 | 0.0 | 0.00 | 0.00 | 0.00 | 44 | 1004.4 |
| 20260504015745 | 14 | 0 | 0.0 | 0.0 | 0.00 | 0.00 | 0.00 | 44 | 1004.4 |
| 20260504015645 | 14 | 0 | 0.0 | 0.0 | 0.00 | 0.00 | 0.00 | 44 | 1004.4 |
| 20260504015545 | 14 | 0 | 0.0 | 0.0 | 0.00 | 0.00 | 0.00 | 44 | 1004.3 |
| 20260504015446 | 14 | 0 | 0.0 | 0.0 | 0.00 | 0.00 | 0.00 | 44 | 1004.3 |
| 20260504015345 | 14 | 0 | 0.0 | 0.0 | 0.00 | 0.00 | 0.00 | 44 | 1004.4 |
| 20260504015245 | 14 | 0 | 0.0 | 0.0 | 0.00 | 0.00 | 0.00 | 44 | 1004.3 |
| 20260504015146 | 14 | 0 | 0.0 | 0.0 | 0.00 | 0.00 | 0.00 | 44 | 1004.3 |
| 20260504015045 | 14 | 0 | 0.0 | 0.0 | 0.00 | 0.00 | 0.00 | 44 | 1004.3 |
| 20260504014945 | 15 | 0 | 0.0 | 0.0 | 0.00 | 0.00 | 0.00 | 43 | 1004.3 |
| 20260504014845 | 15 | 0 | 0.0 | 0.0 | 0.00 | 0.00 | 0.00 | 43 | 1004.3 |
| 20260504014745 | 15 | 0 | 0.0 | 0.0 | 0.00 | 0.00 | 0.00 | 44 | 1004.3 |
| 20260504014645 | 15 | 0 | 0.0 | 0.0 | 0.00 | 0.00 | 0.00 | 43 | 1004.3 |
| 20260504014545 | 15 | 0 | 0.0 | 0.0 | 0.00 | 0.00 | 0.00 | 44 | 1004.4 |
| 20260504014445 | 15 | 0 | 0.0 | 0.0 | 0.00 | 0.00 | 0.00 | 43 | 1004.4 |
| 20260504014345 | 15 | 274 | 0.0 | 1.6 | 0.00 | 0.00 | 0.00 | 43 | 1004.4 |
| 20260504014245 | 15 | 274 | 0.0 | 1.6 | 0.00 | 0.00 | 0.00 | 43 | 1004.4 |
| 20260504014145 | 15 | 275 | 0.0 | 1.6 | 0.00 | 0.00 | 0.00 | 43 | 1004.4 |
| 20260504014045 | 15 | 275 | 0.0 | 3.2 | 0.00 | 0.00 | 0.00 | 43 | 1004.4 |
| 20260504013946 | 15 | 275 | 0.0 | 3.2 | 0.00 | 0.00 | 0.00 | 43 | 1004.4 |
| 20260504013845 | 15 | 275 | 0.0 | 3.2 | 0.00 | 0.00 | 0.00 | 43 | 1004.4 |
| 20260504013745 | 15 | 274 | 0.0 | 3.2 | 0.00 | 0.00 | 0.00 | 43 | 1004.4 |
| 20260504013644 | 15 | 275 | 0.0 | 3.2 | 0.00 | 0.00 | 0.00 | 43 | 1004.4 |
| 20260504013545 | 15 | 275 | 0.0 | 3.2 | 0.00 | 0.00 | 0.00 | 43 | 1004.4 |
| 20260504013445 | 15 | 275 | 0.0 | 3.2 | 0.00 | 0.00 | 0.00 | 43 | 1004.4 |
| 20260504013345 | 15 | 275 | 0.0 | 3.2 | 0.00 | 0.00 | 0.00 | 43 | 1004.4 |
| 20260504013244 | 15 | 275 | 0.0 | 3.2 | 0.00 | 0.00 | 0.00 | 43 | 1004.4 |
| 20260504013145 | 15 | 275 | 0.0 | 3.2 | 0.00 | 0.00 | 0.00 | 43 | 1004.4 |
| 20260504013045 | 15 | 276 | 0.0 | 3.2 | 0.00 | 0.00 | 0.00 | 43 | 1004.4 |
| 20260504012945 | 15 | 276 | 1.6 | 3.2 | 0.00 | 0.00 | 0.00 | 43 | 1004.4 |
| 20260504012845 | 15 | 276 | 1.6 | 3.2 | 0.00 | 0.00 | 0.00 | 43 | 1004.4 |
| 20260504012745 | 15 | 276 | 1.6 | 3.2 | 0.00 | 0.00 | 0.00 | 43 | 1004.4 |
| 20260504012645 | 15 | 276 | 0.0 | 3.2 | 0.00 | 0.00 | 0.00 | 43 | 1004.4 |
| 20260504012545 | 15 | 276 | 1.6 | 3.2 | 0.00 | 0.00 | 0.00 | 42 | 1004.4 |
| 20260504012445 | 16 | 276 | 1.6 | 4.8 | 0.00 | 0.00 | 0.00 | 42 | 1004.4 |
| 20260504012345 | 16 | 277 | 1.6 | 4.8 | 0.00 | 0.00 | 0.00 | 41 | 1004.4 |
| 20260504012246 | 16 | 277 | 1.6 | 6.4 | 0.00 | 0.00 | 0.00 | 41 | 1004.4 |
| 20260504012145 | 16 | 277 | 1.6 | 6.4 | 0.00 | 0.00 | 0.00 | 41 | 1004.4 |
| 20260504012045 | 16 | 278 | 1.6 | 6.4 | 0.00 | 0.00 | 0.00 | 42 | 1004.4 |
| 20260504011945 | 16 | 278 | 1.6 | 6.4 | 0.00 | 0.00 | 0.00 | 42 | 1004.4 |
| 20260504011845 | 16 | 279 | 3.2 | 6.4 | 0.00 | 0.00 | 0.00 | 41 | 1004.4 |
| 20260504011745 | 16 | 279 | 3.2 | 6.4 | 0.00 | 0.00 | 0.00 | 41 | 1004.4 |
| 20260504011645 | 16 | 279 | 3.2 | 6.4 | 0.00 | 0.00 | 0.00 | 41 | 1004.4 |
| 20260504011545 | 16 | 279 | 3.2 | 6.4 | 0.00 | 0.00 | 0.00 | 41 | 1004.5 |
| 20260504011446 | 16 | 279 | 3.2 | 6.4 | 0.00 | 0.00 | 0.00 | 41 | 1004.4 |
| 20260504011345 | 16 | 279 | 3.2 | 6.4 | 0.00 | 0.00 | 0.00 | 40 | 1004.4 |
| 20260504011245 | 16 | 280 | 4.8 | 8.0 | 0.00 | 0.00 | 0.00 | 40 | 1004.4 |
| 20260504011144 | 17 | 281 | 4.8 | 9.7 | 0.00 | 0.00 | 0.00 | 40 | 1004.4 |
| 20260504011044 | 17 | 281 | 4.8 | 9.7 | 0.00 | 0.00 | 0.00 | 40 | 1004.4 |
| 20260504010946 | 17 | 282 | 4.8 | 9.7 | 0.00 | 0.00 | 0.00 | 39 | 1004.4 |
| 20260504010845 | 17 | 282 | 4.8 | 9.7 | 0.00 | 0.00 | 0.00 | 39 | 1004.4 |
| 20260504010745 | 17 | 283 | 6.4 | 9.7 | 0.00 | 0.00 | 0.00 | 39 | 1004.4 |
| 20260504010645 | 17 | 284 | 6.4 | 9.7 | 0.00 | 0.00 | 0.00 | 38 | 1004.4 |
| 20260504010544 | 17 | 284 | 6.4 | 9.7 | 0.00 | 0.00 | 0.00 | 38 | 1004.4 |
| 20260504010445 | 17 | 284 | 6.4 | 11.3 | 0.00 | 0.00 | 0.00 | 38 | 1004.4 |
| 20260504010345 | 18 | 285 | 8.0 | 11.3 | 0.00 | 0.00 | 0.00 | 37 | 1004.4 |
| 20260504010245 | 18 | 284 | 8.0 | 11.3 | 0.00 | 0.00 | 0.00 | 37 | 1004.4 |
| 20260504010145 | 18 | 284 | 8.0 | 11.3 | 0.00 | 0.00 | 0.00 | 37 | 1004.4 |
| 20260504010045 | 18 | 284 | 8.0 | 12.9 | 0.00 | 0.00 | 0.00 | 36 | 1004.4 |
| 20260504005945 | 18 | 285 | 8.0 | 12.9 | 0.00 | 0.00 | 0.00 | 36 | 1004.4 |
| 20260504005845 | 18 | 285 | 8.0 | 12.9 | 0.00 | 0.00 | 0.00 | 36 | 1004.4 |
| 20260504005745 | 18 | 285 | 8.0 | 12.9 | 0.00 | 0.00 | 0.00 | 36 | 1004.4 |
| 20260504005645 | 18 | 285 | 8.0 | 14.5 | 0.00 | 0.00 | 0.00 | 36 | 1004.4 |
| 20260504005544 | 18 | 287 | 9.7 | 14.5 | 0.00 | 0.00 | 0.00 | 36 | 1004.4 |
| 20260504005445 | 18 | 289 | 9.7 | 14.5 | 0.00 | 0.00 | 0.00 | 35 | 1004.4 |
| 20260504005345 | 19 | 290 | 9.7 | 16.1 | 0.00 | 0.00 | 0.00 | 35 | 1004.4 |
| 20260504005245 | 19 | 292 | 9.7 | 16.1 | 0.00 | 0.00 | 0.00 | 35 | 1004.5 |
| 20260504005145 | 19 | 294 | 9.7 | 16.1 | 0.00 | 0.00 | 0.00 | 34 | 1004.5 |
| 20260504005045 | 19 | 295 | 9.7 | 16.1 | 0.00 | 0.00 | 0.00 | 34 | 1004.5 |
| 20260504004944 | 19 | 298 | 9.7 | 16.1 | 0.00 | 0.00 | 0.00 | 34 | 1004.5 |
| 20260504004845 | 19 | 299 | 9.7 | 16.1 | 0.00 | 0.00 | 0.00 | 34 | 1004.4 |
| 20260504004745 | 19 | 299 | 9.7 | 17.7 | 0.00 | 0.00 | 0.00 | 34 | 1004.5 |
| 20260504004645 | 20 | 301 | 9.7 | 17.7 | 0.00 | 0.00 | 0.00 | 34 | 1004.5 |
| 20260504004544 | 20 | 302 | 9.7 | 17.7 | 0.00 | 0.00 | 0.00 | 33 | 1004.5 |
| 20260504004445 | 20 | 303 | 9.7 | 17.7 | 0.00 | 0.00 | 0.00 | 34 | 1004.5 |
| 20260504004345 | 20 | 303 | 9.7 | 17.7 | 0.00 | 0.00 | 0.00 | 34 | 1004.5 |
| 20260504004245 | 20 | 302 | 9.7 | 17.7 | 0.00 | 0.00 | 0.00 | 34 | 1004.5 |
| 20260504004144 | 20 | 303 | 9.7 | 19.3 | 0.00 | 0.00 | 0.00 | 34 | 1004.5 |
| 20260504004045 | 20 | 302 | 9.7 | 19.3 | 0.00 | 0.00 | 0.00 | 34 | 1004.6 |
| 20260504003945 | 20 | 301 | 9.7 | 19.3 | 0.00 | 0.00 | 0.00 | 34 | 1004.5 |
| 20260504003844 | 20 | 300 | 11.3 | 20.9 | 0.00 | 0.00 | 0.00 | 34 | 1004.6 |
| 20260504003745 | 20 | 301 | 11.3 | 20.9 | 0.00 | 0.00 | 0.00 | 34 | 1004.6 |
| 20260504003645 | 20 | 300 | 11.3 | 20.9 | 0.00 | 0.00 | 0.00 | 33 | 1004.6 |
| 20260504003544 | 20 | 300 | 11.3 | 20.9 | 0.00 | 0.00 | 0.00 | 34 | 1004.7 |
| 20260504003445 | 20 | 299 | 11.3 | 20.9 | 0.00 | 0.00 | 0.00 | 34 | 1004.6 |
| 20260504003345 | 20 | 299 | 11.3 | 20.9 | 0.00 | 0.00 | 0.00 | 34 | 1004.6 |
| 20260504003246 | 20 | 300 | 11.3 | 20.9 | 0.00 | 0.00 | 0.00 | 34 | 1004.6 |
| 20260504003145 | 20 | 299 | 11.3 | 20.9 | 0.00 | 0.00 | 0.00 | 33 | 1004.6 |
| 20260504003045 | 20 | 299 | 12.9 | 20.9 | 0.00 | 0.00 | 0.00 | 33 | 1004.7 |
| 20260504002945 | 20 | 298 | 12.9 | 20.9 | 0.00 | 0.00 | 0.00 | 33 | 1004.6 |
| 20260504002844 | 20 | 298 | 12.9 | 20.9 | 0.00 | 0.00 | 0.00 | 34 | 1004.6 |
| 20260504002744 | 20 | 298 | 12.9 | 20.9 | 0.00 | 0.00 | 0.00 | 33 | 1004.6 |
| 20260504002645 | 20 | 297 | 12.9 | 20.9 | 0.00 | 0.00 | 0.00 | 33 | 1004.6 |
| 20260504002545 | 20 | 296 | 12.9 | 20.9 | 0.00 | 0.00 | 0.00 | 33 | 1004.6 |
| 20260504002444 | 20 | 295 | 12.9 | 20.9 | 0.00 | 0.00 | 0.00 | 33 | 1004.6 |
| 20260504002344 | 20 | 295 | 12.9 | 20.9 | 0.00 | 0.00 | 0.00 | 33 | 1004.6 |
| 20260504002245 | 20 | 293 | 12.9 | 20.9 | 0.00 | 0.00 | 0.00 | 33 | 1004.6 |
| 20260504002145 | 20 | 292 | 14.5 | 20.9 | 0.00 | 0.00 | 0.00 | 32 | 1004.6 |
| 20260504002044 | 20 | 291 | 12.9 | 20.9 | 0.00 | 0.00 | 0.00 | 33 | 1004.6 |
| 20260504001945 | 20 | 291 | 12.9 | 20.9 | 0.00 | 0.00 | 0.00 | 34 | 1004.7 |
| 20260504001845 | 20 | 292 | 12.9 | 20.9 | 0.00 | 0.00 | 0.00 | 33 | 1004.7 |
| 20260504001744 | 20 | 292 | 12.9 | 20.9 | 0.00 | 0.00 | 0.00 | 34 | 1004.7 |
| 20260504001645 | 20 | 293 | 12.9 | 20.9 | 0.00 | 0.00 | 0.00 | 34 | 1004.7 |
| 20260504001545 | 20 | 293 | 12.9 | 20.9 | 0.00 | 0.00 | 0.00 | 33 | 1004.6 |
| 20260504001444 | 20 | 293 | 12.9 | 20.9 | 0.00 | 0.00 | 0.00 | 34 | 1004.7 |
| 20260504001345 | 20 | 292 | 12.9 | 20.9 | 0.00 | 0.00 | 0.00 | 34 | 1004.7 |
| 20260504001245 | 20 | 294 | 12.9 | 19.3 | 0.00 | 0.00 | 0.00 | 33 | 1004.7 |
| 20260504001144 | 21 | 294 | 12.9 | 19.3 | 0.00 | 0.00 | 0.00 | 33 | 1004.7 |
| 20260504001044 | 21 | 293 | 12.9 | 19.3 | 0.00 | 0.00 | 0.00 | 34 | 1004.7 |
| 20260504000945 | 20 | 292 | 12.9 | 19.3 | 0.00 | 0.00 | 0.00 | 33 | 1004.6 |
| 20260504000845 | 20 | 290 | 14.5 | 19.3 | 0.00 | 0.00 | 0.00 | 33 | 1004.7 |
| 20260504000744 | 20 | 290 | 14.5 | 19.3 | 0.00 | 0.00 | 0.00 | 34 | 1004.7 |
| 20260504000645 | 20 | 290 | 14.5 | 19.3 | 0.00 | 0.00 | 0.00 | 34 | 1004.7 |
| 20260504000545 | 20 | 289 | 14.5 | 20.9 | 0.00 | 0.00 | 0.00 | 34 | 1004.7 |
| 20260504000445 | 20 | 288 | 14.5 | 22.5 | 0.00 | 0.00 | 0.00 | 33 | 1004.7 |
| 20260504000346 | 20 | 287 | 14.5 | 22.5 | 0.00 | 0.00 | 0.00 | 33 | 1004.7 |
| 20260504000245 | 20 | 286 | 16.1 | 22.5 | 0.00 | 0.00 | 0.00 | 33 | 1004.7 |
| 20260504000145 | 20 | 287 | 16.1 | 22.5 | 0.00 | 0.00 | 0.00 | 33 | 1004.6 |
| 20260504000045 | 20 | 288 | 16.1 | 24.1 | 0.00 | 0.00 | 0.00 | 33 | 1004.6 |
| 20260503235944 | 20 | 291 | 16.1 | 24.1 | 0.00 | 0.00 | 0.00 | 33 | 1004.6 |
| 20260503235844 | 20 | 293 | 16.1 | 24.1 | 0.00 | 0.00 | 0.00 | 33 | 1004.6 |
| 20260503235745 | 20 | 294 | 16.1 | 24.1 | 0.00 | 0.00 | 0.00 | 33 | 1004.7 |
| 20260503235645 | 21 | 295 | 16.1 | 24.1 | 0.00 | 0.00 | 0.00 | 32 | 1004.7 |
| 20260503235545 | 21 | 297 | 16.1 | 24.1 | 0.00 | 0.00 | 0.00 | 33 | 1004.7 |
| 20260503235444 | 21 | 299 | 14.5 | 24.1 | 0.00 | 0.00 | 0.00 | 33 | 1004.6 |
| 20260503235344 | 21 | 302 | 14.5 | 24.1 | 0.00 | 0.00 | 0.00 | 33 | 1004.6 |
| 20260503235245 | 21 | 303 | 12.9 | 24.1 | 0.00 | 0.00 | 0.00 | 33 | 1004.7 |
| 20260503235144 | 21 | 305 | 12.9 | 24.1 | 0.00 | 0.00 | 0.00 | 33 | 1004.7 |
| 20260503235044 | 21 | 307 | 12.9 | 24.1 | 0.00 | 0.00 | 0.00 | 33 | 1004.7 |
| 20260503234945 | 21 | 305 | 12.9 | 24.1 | 0.00 | 0.00 | 0.00 | 33 | 1004.6 |
| 20260503234844 | 21 | 303 | 12.9 | 24.1 | 0.00 | 0.00 | 0.00 | 33 | 1004.6 |
| 20260503234744 | 21 | 303 | 12.9 | 24.1 | 0.00 | 0.00 | 0.00 | 33 | 1004.7 |
| 20260503234644 | 21 | 301 | 12.9 | 24.1 | 0.00 | 0.00 | 0.00 | 33 | 1004.6 |
| 20260503234546 | 21 | 300 | 12.9 | 22.5 | 0.00 | 0.00 | 0.00 | 34 | 1004.6 |
| 20260503234445 | 21 | 299 | 14.5 | 22.5 | 0.00 | 0.00 | 0.00 | 33 | 1004.7 |
| 20260503234344 | 21 | 298 | 14.5 | 22.5 | 0.00 | 0.00 | 0.00 | 33 | 1004.7 |
| 20260503234245 | 21 | 300 | 14.5 | 22.5 | 0.00 | 0.00 | 0.00 | 33 | 1004.7 |
| 20260503234144 | 21 | 299 | 12.9 | 22.5 | 0.00 | 0.00 | 0.00 | 33 | 1004.8 |
| 20260503234045 | 21 | 298 | 12.9 | 22.5 | 0.00 | 0.00 | 0.00 | 33 | 1004.7 |
| 20260503233944 | 21 | 296 | 12.9 | 22.5 | 0.00 | 0.00 | 0.00 | 33 | 1004.7 |
| 20260503233844 | 21 | 298 | 12.9 | 22.5 | 0.00 | 0.00 | 0.00 | 33 | 1004.7 |
| 20260503233744 | 21 | 299 | 12.9 | 22.5 | 0.00 | 0.00 | 0.00 | 33 | 1004.7 |
| 20260503233645 | 21 | 301 | 11.3 | 19.3 | 0.00 | 0.00 | 0.00 | 34 | 1004.7 |
| 20260503233545 | 21 | 303 | 11.3 | 22.5 | 0.00 | 0.00 | 0.00 | 33 | 1004.7 |
| 20260503233444 | 21 | 307 | 11.3 | 22.5 | 0.00 | 0.00 | 0.00 | 32 | 1004.7 |
| 20260503233344 | 21 | 313 | 11.3 | 22.5 | 0.00 | 0.00 | 0.00 | 33 | 1004.7 |
| 20260503233245 | 21 | 315 | 11.3 | 22.5 | 0.00 | 0.00 | 0.00 | 33 | 1004.7 |
| 20260503233145 | 21 | 319 | 12.9 | 22.5 | 0.00 | 0.00 | 0.00 | 33 | 1004.8 |
| 20260503233044 | 21 | 323 | 11.3 | 22.5 | 0.00 | 0.00 | 0.00 | 33 | 1004.8 |
| 20260503232944 | 21 | 326 | 12.9 | 22.5 | 0.00 | 0.00 | 0.00 | 34 | 1004.7 |
| 20260503232844 | 21 | 323 | 12.9 | 22.5 | 0.00 | 0.00 | 0.00 | 33 | 1004.8 |
| 20260503232745 | 21 | 322 | 12.9 | 22.5 | 0.00 | 0.00 | 0.00 | 33 | 1004.8 |
| 20260503232644 | 21 | 324 | 12.9 | 22.5 | 0.00 | 0.00 | 0.00 | 33 | 1004.8 |
| 20260503232544 | 21 | 324 | 12.9 | 22.5 | 0.00 | 0.00 | 0.00 | 33 | 1004.8 |
| 20260503232444 | 21 | 323 | 11.3 | 22.5 | 0.00 | 0.00 | 0.00 | 32 | 1004.8 |
| 20260503232345 | 21 | 317 | 11.3 | 22.5 | 0.00 | 0.00 | 0.00 | 32 | 1004.7 |
| 20260503232244 | 21 | 313 | 11.3 | 22.5 | 0.00 | 0.00 | 0.00 | 32 | 1004.7 |
| 20260503232144 | 21 | 307 | 11.3 | 22.5 | 0.00 | 0.00 | 0.00 | 32 | 1004.8 |
| 20260503232045 | 21 | 305 | 11.3 | 22.5 | 0.00 | 0.00 | 0.00 | 32 | 1004.8 |
| 20260503231944 | 21 | 304 | 11.3 | 22.5 | 0.00 | 0.00 | 0.00 | 32 | 1004.8 |
| 20260503231844 | 21 | 305 | 11.3 | 22.5 | 0.00 | 0.00 | 0.00 | 32 | 1004.9 |
| 20260503231744 | 21 | 305 | 11.3 | 22.5 | 0.00 | 0.00 | 0.00 | 31 | 1004.8 |
| 20260503231645 | 21 | 303 | 11.3 | 22.5 | 0.00 | 0.00 | 0.00 | 31 | 1004.8 |
| 20260503231544 | 21 | 302 | 11.3 | 22.5 | 0.00 | 0.00 | 0.00 | 32 | 1004.8 |
| 20260503231444 | 21 | 302 | 11.3 | 22.5 | 0.00 | 0.00 | 0.00 | 32 | 1004.9 |
| 20260503231345 | 21 | 302 | 11.3 | 22.5 | 0.00 | 0.00 | 0.00 | 32 | 1004.8 |
| 20260503231244 | 21 | 302 | 11.3 | 22.5 | 0.00 | 0.00 | 0.00 | 31 | 1004.9 |
| 20260503231144 | 21 | 305 | 11.3 | 22.5 | 0.00 | 0.00 | 0.00 | 31 | 1004.9 |
| 20260503231045 | 21 | 308 | 11.3 | 22.5 | 0.00 | 0.00 | 0.00 | 32 | 1004.8 |
| 20260503230944 | 21 | 307 | 11.3 | 22.5 | 0.00 | 0.00 | 0.00 | 32 | 1004.8 |
| 20260503230845 | 21 | 308 | 11.3 | 20.9 | 0.00 | 0.00 | 0.00 | 32 | 1004.8 |
| 20260503230744 | 21 | 308 | 11.3 | 20.9 | 0.00 | 0.00 | 0.00 | 32 | 1004.8 |
| 20260503230645 | 21 | 309 | 11.3 | 20.9 | 0.00 | 0.00 | 0.00 | 33 | 1004.8 |
| 20260503230544 | 21 | 311 | 11.3 | 20.9 | 0.00 | 0.00 | 0.00 | 32 | 1004.8 |
| 20260503230445 | 21 | 315 | 11.3 | 20.9 | 0.00 | 0.00 | 0.00 | 32 | 1004.8 |
| 20260503230345 | 21 | 321 | 11.3 | 24.1 | 0.00 | 0.00 | 0.00 | 31 | 1004.8 |
| 20260503230244 | 21 | 324 | 12.9 | 25.7 | 0.00 | 0.00 | 0.00 | 30 | 1004.8 |
| 20260503230144 | 21 | 321 | 12.9 | 25.7 | 0.00 | 0.00 | 0.00 | 31 | 1004.8 |
| 20260503230045 | 21 | 316 | 12.9 | 25.7 | 0.00 | 0.00 | 0.00 | 32 | 1004.8 |
| 20260503225944 | 21 | 316 | 12.9 | 25.7 | 0.00 | 0.00 | 0.00 | 32 | 1004.8 |
| 20260503225844 | 21 | 316 | 14.5 | 25.7 | 0.00 | 0.00 | 0.00 | 32 | 1004.8 |
| 20260503225744 | 21 | 318 | 14.5 | 25.7 | 0.00 | 0.00 | 0.00 | 31 | 1004.8 |
| 20260503225645 | 21 | 317 | 14.5 | 25.7 | 0.00 | 0.00 | 0.00 | 30 | 1004.8 |
| 20260503225544 | 21 | 313 | 16.1 | 25.7 | 0.00 | 0.00 | 0.00 | 30 | 1004.8 |
| 20260503225444 | 21 | 309 | 16.1 | 25.7 | 0.00 | 0.00 | 0.00 | 30 | 1004.8 |
| 20260503225344 | 21 | 306 | 16.1 | 25.7 | 0.00 | 0.00 | 0.00 | 30 | 1004.8 |
| 20260503225245 | 21 | 305 | 16.1 | 25.7 | 0.00 | 0.00 | 0.00 | 31 | 1004.8 |
| 20260503225144 | 21 | 308 | 16.1 | 25.7 | 0.00 | 0.00 | 0.00 | 30 | 1004.8 |
| 20260503225044 | 22 | 312 | 16.1 | 25.7 | 0.00 | 0.00 | 0.00 | 31 | 1004.7 |
| 20260503224944 | 22 | 314 | 14.5 | 25.7 | 0.00 | 0.00 | 0.00 | 30 | 1004.8 |
| 20260503224844 | 22 | 317 | 14.5 | 25.7 | 0.00 | 0.00 | 0.00 | 30 | 1004.8 |
| 20260503224744 | 22 | 318 | 14.5 | 24.1 | 0.00 | 0.00 | 0.00 | 30 | 1004.7 |
| 20260503224644 | 22 | 321 | 12.9 | 24.1 | 0.00 | 0.00 | 0.00 | 30 | 1004.7 |
| 20260503224545 | 22 | 327 | 12.9 | 24.1 | 0.00 | 0.00 | 0.00 | 30 | 1004.8 |
| 20260503224444 | 22 | 331 | 12.9 | 24.1 | 0.00 | 0.00 | 0.00 | 30 | 1004.7 |
| 20260503224344 | 21 | 336 | 11.3 | 22.5 | 0.00 | 0.00 | 0.00 | 30 | 1004.7 |
| 20260503224244 | 21 | 333 | 11.3 | 22.5 | 0.00 | 0.00 | 0.00 | 31 | 1004.8 |
| 20260503224145 | 21 | 328 | 11.3 | 22.5 | 0.00 | 0.00 | 0.00 | 32 | 1004.8 |
| 20260503224044 | 21 | 321 | 12.9 | 27.4 | 0.00 | 0.00 | 0.00 | 30 | 1004.8 |
| 20260503223944 | 21 | 317 | 12.9 | 27.4 | 0.00 | 0.00 | 0.00 | 30 | 1004.7 |
| 20260503223845 | 21 | 313 | 12.9 | 27.4 | 0.00 | 0.00 | 0.00 | 32 | 1004.8 |
| 20260503223744 | 22 | 313 | 12.9 | 27.4 | 0.00 | 0.00 | 0.00 | 31 | 1004.8 |
| 20260503223644 | 22 | 312 | 12.9 | 27.4 | 0.00 | 0.00 | 0.00 | 31 | 1004.8 |
| 20260503223544 | 22 | 314 | 14.5 | 27.4 | 0.00 | 0.00 | 0.00 | 31 | 1004.8 |
| 20260503223445 | 22 | 315 | 14.5 | 27.4 | 0.00 | 0.00 | 0.00 | 32 | 1004.9 |
| 20260503223345 | 22 | 315 | 14.5 | 27.4 | 0.00 | 0.00 | 0.00 | 32 | 1004.8 |
| 20260503223244 | 22 | 319 | 14.5 | 27.4 | 0.00 | 0.00 | 0.00 | 31 | 1004.8 |
| 20260503223144 | 22 | 321 | 14.5 | 27.4 | 0.00 | 0.00 | 0.00 | 32 | 1004.9 |
| 20260503223045 | 22 | 324 | 14.5 | 27.4 | 0.00 | 0.00 | 0.00 | 31 | 1004.7 |
| 20260503222944 | 21 | 324 | 14.5 | 27.4 | 0.00 | 0.00 | 0.00 | 32 | 1004.8 |
| 20260503222845 | 21 | 322 | 14.5 | 27.4 | 0.00 | 0.00 | 0.00 | 32 | 1004.7 |
| 20260503222744 | 21 | 319 | 14.5 | 27.4 | 0.00 | 0.00 | 0.00 | 31 | 1004.7 |
| 20260503222644 | 21 | 316 | 16.1 | 27.4 | 0.00 | 0.00 | 0.00 | 30 | 1004.7 |
| 20260503222545 | 21 | 311 | 14.5 | 27.4 | 0.00 | 0.00 | 0.00 | 31 | 1004.7 |
| 20260503222444 | 21 | 311 | 14.5 | 27.4 | 0.00 | 0.00 | 0.00 | 32 | 1004.7 |
| 20260503222344 | 22 | 311 | 14.5 | 27.4 | 0.00 | 0.00 | 0.00 | 31 | 1004.7 |
| 20260503222244 | 22 | 310 | 14.5 | 27.4 | 0.00 | 0.00 | 0.00 | 32 | 1004.8 |
| 20260503222144 | 21 | 311 | 12.9 | 24.1 | 0.00 | 0.00 | 0.00 | 31 | 1004.8 |
| 20260503222044 | 21 | 311 | 12.9 | 24.1 | 0.00 | 0.00 | 0.00 | 31 | 1004.8 |
| 20260503221944 | 21 | 315 | 12.9 | 24.1 | 0.00 | 0.00 | 0.00 | 31 | 1004.8 |
| 20260503221845 | 21 | 322 | 12.9 | 25.7 | 0.00 | 0.00 | 0.00 | 32 | 1004.8 |
| 20260503221744 | 21 | 326 | 11.3 | 25.7 | 0.00 | 0.00 | 0.00 | 31 | 1004.8 |
| 20260503221644 | 21 | 332 | 11.3 | 25.7 | 0.00 | 0.00 | 0.00 | 32 | 1004.9 |
| 20260503221544 | 21 | 331 | 11.3 | 25.7 | 0.00 | 0.00 | 0.00 | 31 | 1004.8 |
| 20260503221444 | 21 | 328 | 11.3 | 25.7 | 0.00 | 0.00 | 0.00 | 30 | 1004.8 |
| 20260503221344 | 21 | 321 | 12.9 | 25.7 | 0.00 | 0.00 | 0.00 | 30 | 1004.8 |
| 20260503221245 | 21 | 316 | 12.9 | 25.7 | 0.00 | 0.00 | 0.00 | 30 | 1004.8 |
| 20260503221145 | 21 | 315 | 12.9 | 25.7 | 0.00 | 0.00 | 0.00 | 30 | 1004.8 |
| 20260503221044 | 21 | 317 | 12.9 | 25.7 | 0.00 | 0.00 | 0.00 | 31 | 1004.8 |
| 20260503220944 | 21 | 318 | 14.5 | 25.7 | 0.00 | 0.00 | 0.00 | 30 | 1004.8 |
| 20260503220844 | 21 | 317 | 14.5 | 22.5 | 0.00 | 0.00 | 0.00 | 30 | 1004.8 |
| 20260503220744 | 21 | 318 | 14.5 | 22.5 | 0.00 | 0.00 | 0.00 | 31 | 1004.8 |
| 20260503220644 | 21 | 320 | 16.1 | 24.1 | 0.00 | 0.00 | 0.00 | 32 | 1004.9 |
| 20260503220544 | 21 | 323 | 16.1 | 24.1 | 0.00 | 0.00 | 0.00 | 31 | 1004.8 |
| 20260503220444 | 21 | 325 | 14.5 | 24.1 | 0.00 | 0.00 | 0.00 | 31 | 1004.9 |
| 20260503220343 | 21 | 331 | 14.5 | 24.1 | 0.00 | 0.00 | 0.00 | 33 | 1004.9 |
| 20260503220244 | 21 | 333 | 14.5 | 24.1 | 0.00 | 0.00 | 0.00 | 30 | 1004.8 |
| 20260503220144 | 21 | 330 | 14.5 | 24.1 | 0.00 | 0.00 | 0.00 | 31 | 1004.8 |
| 20260503220044 | 21 | 325 | 14.5 | 24.1 | 0.00 | 0.00 | 0.00 | 30 | 1004.8 |
| 20260503215945 | 21 | 321 | 14.5 | 27.4 | 0.00 | 0.00 | 0.00 | 30 | 1004.8 |
| 20260503215844 | 21 | 314 | 14.5 | 27.4 | 0.00 | 0.00 | 0.00 | 30 | 1004.7 |
| 20260503215744 | 21 | 312 | 14.5 | 27.4 | 0.00 | 0.00 | 0.00 | 30 | 1004.8 |
| 20260503215644 | 21 | 307 | 12.9 | 27.4 | 0.00 | 0.00 | 0.00 | 30 | 1004.8 |
| 20260503215544 | 22 | 304 | 12.9 | 27.4 | 0.00 | 0.00 | 0.00 | 31 | 1004.8 |
| 20260503215444 | 22 | 301 | 14.5 | 27.4 | 0.00 | 0.00 | 0.00 | 31 | 1004.8 |
| 20260503215345 | 21 | 300 | 14.5 | 27.4 | 0.00 | 0.00 | 0.00 | 31 | 1004.8 |
| 20260503215244 | 22 | 299 | 16.1 | 27.4 | 0.00 | 0.00 | 0.00 | 30 | 1004.8 |
| 20260503215144 | 22 | 300 | 16.1 | 27.4 | 0.00 | 0.00 | 0.00 | 31 | 1004.8 |
| 20260503215044 | 22 | 300 | 16.1 | 27.4 | 0.00 | 0.00 | 0.00 | 30 | 1004.9 |
| 20260503214944 | 22 | 300 | 16.1 | 25.7 | 0.00 | 0.00 | 0.00 | 30 | 1004.9 |
| 20260503214843 | 22 | 302 | 16.1 | 25.7 | 0.00 | 0.00 | 0.00 | 30 | 1004.9 |
| 20260503214744 | 22 | 300 | 16.1 | 27.4 | 0.00 | 0.00 | 0.00 | 32 | 1004.8 |
| 20260503214645 | 22 | 299 | 17.7 | 27.4 | 0.00 | 0.00 | 0.00 | 31 | 1004.8 |
| 20260503214544 | 22 | 298 | 17.7 | 29.0 | 0.00 | 0.00 | 0.00 | 31 | 1004.9 |
| 20260503214444 | 21 | 298 | 17.7 | 29.0 | 0.00 | 0.00 | 0.00 | 31 | 1004.9 |
| 20260503214344 | 22 | 297 | 17.7 | 29.0 | 0.00 | 0.00 | 0.00 | 30 | 1004.9 |
| 20260503214244 | 22 | 297 | 17.7 | 29.0 | 0.00 | 0.00 | 0.00 | 31 | 1004.9 |
| 20260503214145 | 21 | 301 | 17.7 | 29.0 | 0.00 | 0.00 | 0.00 | 31 | 1004.9 |
| 20260503214044 | 21 | 304 | 17.7 | 29.0 | 0.00 | 0.00 | 0.00 | 31 | 1004.9 |
| 20260503213944 | 21 | 307 | 17.7 | 29.0 | 0.00 | 0.00 | 0.00 | 31 | 1004.9 |
| 20260503213844 | 21 | 310 | 16.1 | 29.0 | 0.00 | 0.00 | 0.00 | 31 | 1004.9 |
| 20260503213744 | 21 | 310 | 16.1 | 29.0 | 0.00 | 0.00 | 0.00 | 31 | 1004.8 |
| 20260503213644 | 21 | 313 | 14.5 | 29.0 | 0.00 | 0.00 | 0.00 | 30 | 1004.9 |
| 20260503213543 | 21 | 315 | 12.9 | 29.0 | 0.00 | 0.00 | 0.00 | 31 | 1004.9 |
| 20260503213444 | 21 | 319 | 12.9 | 29.0 | 0.00 | 0.00 | 0.00 | 31 | 1004.9 |
| 20260503213344 | 21 | 321 | 12.9 | 29.0 | 0.00 | 0.00 | 0.00 | 32 | 1004.9 |
| 20260503213244 | 21 | 323 | 12.9 | 29.0 | 0.00 | 0.00 | 0.00 | 30 | 1004.9 |
| 20260503213143 | 21 | 321 | 12.9 | 29.0 | 0.00 | 0.00 | 0.00 | 31 | 1004.9 |
| 20260503213044 | 21 | 319 | 12.9 | 29.0 | 0.00 | 0.00 | 0.00 | 31 | 1004.9 |
| 20260503212944 | 21 | 316 | 12.9 | 29.0 | 0.00 | 0.00 | 0.00 | 33 | 1004.9 |
| 20260503212844 | 21 | 317 | 12.9 | 29.0 | 0.00 | 0.00 | 0.00 | 32 | 1004.9 |
| 20260503212745 | 21 | 321 | 14.5 | 29.0 | 0.00 | 0.00 | 0.00 | 32 | 1004.8 |
| 20260503212644 | 21 | 324 | 14.5 | 29.0 | 0.00 | 0.00 | 0.00 | 32 | 1004.9 |
| 20260503212544 | 21 | 327 | 16.1 | 29.0 | 0.00 | 0.00 | 0.00 | 31 | 1005.0 |
| 20260503212444 | 21 | 329 | 16.1 | 29.0 | 0.00 | 0.00 | 0.00 | 31 | 1005.0 |
| 20260503212344 | 21 | 330 | 16.1 | 27.4 | 0.00 | 0.00 | 0.00 | 32 | 1005.0 |
| 20260503212244 | 21 | 332 | 16.1 | 27.4 | 0.00 | 0.00 | 0.00 | 32 | 1005.0 |
| 20260503212144 | 21 | 335 | 14.5 | 27.4 | 0.00 | 0.00 | 0.00 | 31 | 1005.0 |
| 20260503212044 | 21 | 337 | 16.1 | 27.4 | 0.00 | 0.00 | 0.00 | 32 | 1004.9 |
| 20260503211943 | 21 | 339 | 16.1 | 27.4 | 0.00 | 0.00 | 0.00 | 31 | 1004.9 |
| 20260503211844 | 21 | 338 | 16.1 | 27.4 | 0.00 | 0.00 | 0.00 | 31 | 1004.9 |
| 20260503211744 | 21 | 338 | 16.1 | 27.4 | 0.00 | 0.00 | 0.00 | 31 | 1004.9 |
| 20260503211644 | 21 | 338 | 16.1 | 27.4 | 0.00 | 0.00 | 0.00 | 30 | 1005.0 |
| 20260503211544 | 21 | 335 | 14.5 | 27.4 | 0.00 | 0.00 | 0.00 | 31 | 1004.9 |
| 20260503211444 | 21 | 332 | 14.5 | 27.4 | 0.00 | 0.00 | 0.00 | 32 | 1005.0 |
| 20260503211344 | 21 | 329 | 14.5 | 27.4 | 0.00 | 0.00 | 0.00 | 30 | 1005.0 |
| 20260503211243 | 21 | 329 | 14.5 | 27.4 | 0.00 | 0.00 | 0.00 | 30 | 1005.1 |
| 20260503211144 | 21 | 329 | 16.1 | 27.4 | 0.00 | 0.00 | 0.00 | 29 | 1005.0 |
| 20260503211045 | 21 | 325 | 14.5 | 27.4 | 0.00 | 0.00 | 0.00 | 31 | 1005.0 |
| 20260503210944 | 21 | 324 | 14.5 | 27.4 | 0.00 | 0.00 | 0.00 | 31 | 1005.0 |
| 20260503210844 | 21 | 325 | 14.5 | 29.0 | 0.00 | 0.00 | 0.00 | 31 | 1005.0 |
| 20260503210744 | 21 | 327 | 16.1 | 29.0 | 0.00 | 0.00 | 0.00 | 30 | 1005.1 |
| 20260503210644 | 21 | 329 | 16.1 | 32.2 | 0.00 | 0.00 | 0.00 | 31 | 1005.1 |
| 20260503210544 | 21 | 334 | 17.7 | 32.2 | 0.00 | 0.00 | 0.00 | 30 | 1005.1 |
| 20260503210444 | 21 | 336 | 17.7 | 32.2 | 0.00 | 0.00 | 0.00 | 31 | 1005.1 |
| 20260503210344 | 21 | 339 | 17.7 | 32.2 | 0.00 | 0.00 | 0.00 | 30 | 1005.1 |
| 20260503210244 | 21 | 339 | 17.7 | 32.2 | 0.00 | 0.00 | 0.00 | 29 | 1005.1 |
| 20260503210144 | 21 | 338 | 16.1 | 32.2 | 0.00 | 0.00 | 0.00 | 30 | 1005.1 |
| 20260503210044 | 21 | 340 | 16.1 | 32.2 | 0.00 | 0.00 | 0.00 | 30 | 1005.2 |
| 20260503205944 | 21 | 340 | 17.7 | 32.2 | 0.00 | 0.00 | 0.00 | 30 | 1005.2 |
| 20260503205844 | 21 | 340 | 17.7 | 32.2 | 0.00 | 0.00 | 0.00 | 30 | 1005.2 |
| 20260503205744 | 21 | 335 | 17.7 | 32.2 | 0.00 | 0.00 | 0.00 | 30 | 1005.3 |
| 20260503205643 | 21 | 329 | 17.7 | 29.0 | 0.00 | 0.00 | 0.00 | 30 | 1005.2 |
| 20260503205543 | 21 | 323 | 17.7 | 30.6 | 0.00 | 0.00 | 0.00 | 30 | 1005.2 |
| 20260503205444 | 21 | 321 | 16.1 | 30.6 | 0.00 | 0.00 | 0.00 | 30 | 1005.2 |
| 20260503205344 | 21 | 321 | 16.1 | 30.6 | 0.00 | 0.00 | 0.00 | 31 | 1005.3 |
| 20260503205244 | 21 | 322 | 17.7 | 33.8 | 0.00 | 0.00 | 0.00 | 29 | 1005.4 |
| 20260503205143 | 21 | 323 | 19.3 | 35.4 | 0.00 | 0.00 | 0.00 | 30 | 1005.4 |
| 20260503205044 | 21 | 323 | 19.3 | 35.4 | 0.00 | 0.00 | 0.00 | 30 | 1005.4 |
| 20260503204944 | 21 | 323 | 17.7 | 35.4 | 0.00 | 0.00 | 0.00 | 31 | 1005.4 |
| 20260503204845 | 21 | 320 | 19.3 | 35.4 | 0.00 | 0.00 | 0.00 | 31 | 1005.3 |
| 20260503204744 | 21 | 323 | 17.7 | 35.4 | 0.00 | 0.00 | 0.00 | 31 | 1005.3 |
| 20260503204643 | 21 | 327 | 17.7 | 35.4 | 0.00 | 0.00 | 0.00 | 33 | 1005.4 |
| 20260503204544 | 21 | 331 | 17.7 | 35.4 | 0.00 | 0.00 | 0.00 | 33 | 1005.5 |
| 20260503204444 | 21 | 328 | 17.7 | 35.4 | 0.00 | 0.00 | 0.00 | 31 | 1005.4 |
| 20260503204344 | 21 | 323 | 17.7 | 35.4 | 0.00 | 0.00 | 0.00 | 31 | 1005.3 |
| 20260503204244 | 21 | 322 | 17.7 | 35.4 | 0.00 | 0.00 | 0.00 | 32 | 1005.3 |
| 20260503204144 | 21 | 318 | 17.7 | 33.8 | 0.00 | 0.00 | 0.00 | 32 | 1005.3 |
| 20260503204044 | 21 | 317 | 19.3 | 33.8 | 0.00 | 0.00 | 0.00 | 31 | 1005.5 |
| 20260503203944 | 21 | 318 | 19.3 | 33.8 | 0.00 | 0.00 | 0.00 | 33 | 1005.5 |
| 20260503203844 | 21 | 322 | 19.3 | 32.2 | 0.00 | 0.00 | 0.00 | 32 | 1005.5 |
| 20260503203744 | 21 | 322 | 19.3 | 32.2 | 0.00 | 0.00 | 0.00 | 31 | 1005.5 |
| 20260503203643 | 21 | 323 | 19.3 | 32.2 | 0.00 | 0.00 | 0.00 | 31 | 1005.5 |
| 20260503203544 | 21 | 323 | 19.3 | 32.2 | 0.00 | 0.00 | 0.00 | 31 | 1005.5 |
| 20260503203444 | 21 | 327 | 19.3 | 32.2 | 0.00 | 0.00 | 0.00 | 32 | 1005.5 |
| 20260503203343 | 21 | 331 | 17.7 | 30.6 | 0.00 | 0.00 | 0.00 | 32 | 1005.5 |
| 20260503203243 | 21 | 331 | 17.7 | 30.6 | 0.00 | 0.00 | 0.00 | 31 | 1005.6 |
| 20260503203144 | 21 | 333 | 16.1 | 29.0 | 0.00 | 0.00 | 0.00 | 32 | 1005.5 |
| 20260503203044 | 21 | 334 | 16.1 | 29.0 | 0.00 | 0.00 | 0.00 | 32 | 1005.4 |
| 20260503202944 | 21 | 331 | 16.1 | 29.0 | 0.00 | 0.00 | 0.00 | 32 | 1005.5 |
| 20260503202843 | 21 | 331 | 16.1 | 32.2 | 0.00 | 0.00 | 0.00 | 34 | 1005.5 |
| 20260503202745 | 21 | 331 | 16.1 | 32.2 | 0.00 | 0.00 | 0.00 | 33 | 1005.5 |
| 20260503202644 | 21 | 331 | 17.7 | 32.2 | 0.00 | 0.00 | 0.00 | 33 | 1005.5 |
| 20260503202543 | 21 | 331 | 17.7 | 32.2 | 0.00 | 0.00 | 0.00 | 32 | 1005.5 |
| 20260503202443 | 21 | 331 | 19.3 | 32.2 | 0.00 | 0.00 | 0.00 | 33 | 1005.5 |
| 20260503202344 | 21 | 327 | 19.3 | 33.8 | 0.00 | 0.00 | 0.00 | 34 | 1005.5 |
| 20260503202244 | 21 | 327 | 19.3 | 33.8 | 0.00 | 0.00 | 0.00 | 33 | 1005.6 |
| 20260503202144 | 21 | 328 | 19.3 | 33.8 | 0.00 | 0.00 | 0.00 | 32 | 1005.6 |
| 20260503202043 | 21 | 326 | 19.3 | 33.8 | 0.00 | 0.00 | 0.00 | 32 | 1005.7 |
| 20260503201945 | 21 | 326 | 19.3 | 33.8 | 0.00 | 0.00 | 0.00 | 32 | 1005.6 |
| 20260503201844 | 21 | 321 | 17.7 | 33.8 | 0.00 | 0.00 | 0.00 | 31 | 1005.5 |
| 20260503201744 | 21 | 322 | 17.7 | 33.8 | 0.00 | 0.00 | 0.00 | 31 | 1005.5 |
| 20260503201643 | 21 | 323 | 17.7 | 33.8 | 0.00 | 0.00 | 0.00 | 31 | 1005.5 |
| 20260503201544 | 21 | 323 | 17.7 | 33.8 | 0.00 | 0.00 | 0.00 | 30 | 1005.6 |
| 20260503201444 | 21 | 324 | 17.7 | 33.8 | 0.00 | 0.00 | 0.00 | 32 | 1005.6 |
| 20260503201344 | 21 | 329 | 16.1 | 30.6 | 0.00 | 0.00 | 0.00 | 31 | 1005.6 |
| 20260503201243 | 21 | 331 | 17.7 | 30.6 | 0.00 | 0.00 | 0.00 | 32 | 1005.6 |
| 20260503201144 | 21 | 330 | 17.7 | 30.6 | 0.00 | 0.00 | 0.00 | 33 | 1005.7 |
| 20260503201044 | 21 | 333 | 17.7 | 30.6 | 0.00 | 0.00 | 0.00 | 34 | 1005.7 |
| 20260503200943 | 21 | 334 | 17.7 | 30.6 | 0.00 | 0.00 | 0.00 | 33 | 1005.7 |
| 20260503200843 | 21 | 335 | 16.1 | 30.6 | 0.00 | 0.00 | 0.00 | 31 | 1005.7 |
| 20260503200744 | 21 | 331 | 16.1 | 30.6 | 0.00 | 0.00 | 0.00 | 32 | 1005.7 |
| 20260503200644 | 21 | 325 | 16.1 | 30.6 | 0.00 | 0.00 | 0.00 | 33 | 1005.6 |
| 20260503200543 | 21 | 325 | 14.5 | 30.6 | 0.00 | 0.00 | 0.00 | 31 | 1005.5 |
| 20260503200444 | 21 | 323 | 14.5 | 25.7 | 0.00 | 0.00 | 0.00 | 31 | 1005.5 |
| 20260503200344 | 21 | 323 | 14.5 | 25.7 | 0.00 | 0.00 | 0.00 | 33 | 1005.6 |
| 20260503200243 | 21 | 323 | 14.5 | 25.7 | 0.00 | 0.00 | 0.00 | 32 | 1005.5 |
| 20260503200144 | 21 | 324 | 14.5 | 25.7 | 0.00 | 0.00 | 0.00 | 33 | 1005.5 |
| 20260503200044 | 21 | 325 | 14.5 | 25.7 | 0.00 | 0.00 | 0.00 | 35 | 1005.5 |
| 20260503195943 | 21 | 326 | 14.5 | 25.7 | 0.00 | 0.00 | 0.00 | 35 | 1005.5 |
| 20260503195843 | 21 | 332 | 14.5 | 30.6 | 0.00 | 0.00 | 0.00 | 35 | 1005.6 |
| 20260503195743 | 21 | 335 | 16.1 | 33.8 | 0.00 | 0.00 | 0.00 | 34 | 1005.5 |
| 20260503195644 | 21 | 338 | 16.1 | 33.8 | 0.00 | 0.00 | 0.00 | 36 | 1005.6 |
| 20260503195543 | 21 | 335 | 16.1 | 33.8 | 0.00 | 0.00 | 0.00 | 35 | 1005.5 |
| 20260503195443 | 21 | 331 | 16.1 | 33.8 | 0.00 | 0.00 | 0.00 | 35 | 1005.6 |
| 20260503195343 | 21 | 326 | 17.7 | 33.8 | 0.00 | 0.00 | 0.00 | 34 | 1005.6 |
| 20260503195244 | 21 | 321 | 17.7 | 33.8 | 0.00 | 0.00 | 0.00 | 34 | 1005.7 |
| 20260503195144 | 21 | 316 | 17.7 | 33.8 | 0.00 | 0.00 | 0.00 | 34 | 1005.7 |
| 20260503195043 | 21 | 312 | 17.7 | 33.8 | 0.00 | 0.00 | 0.00 | 34 | 1005.8 |
| 20260503194943 | 21 | 307 | 17.7 | 33.8 | 0.00 | 0.00 | 0.00 | 33 | 1005.8 |
| 20260503194844 | 21 | 301 | 17.7 | 33.8 | 0.00 | 0.00 | 0.00 | 33 | 1005.7 |
| 20260503194744 | 21 | 296 | 17.7 | 33.8 | 0.00 | 0.00 | 0.00 | 34 | 1005.7 |
| 20260503194643 | 21 | 296 | 17.7 | 33.8 | 0.00 | 0.00 | 0.00 | 34 | 1005.7 |
| 20260503194543 | 21 | 300 | 17.7 | 33.8 | 0.00 | 0.00 | 0.00 | 34 | 1005.7 |
| 20260503194444 | 21 | 300 | 17.7 | 33.8 | 0.00 | 0.00 | 0.00 | 35 | 1005.7 |
| 20260503194344 | 21 | 300 | 17.7 | 33.8 | 0.00 | 0.00 | 0.00 | 36 | 1005.7 |
| 20260503194243 | 21 | 303 | 16.1 | 32.2 | 0.00 | 0.00 | 0.00 | 36 | 1005.8 |
| 20260503194143 | 21 | 308 | 16.1 | 32.2 | 0.00 | 0.00 | 0.00 | 35 | 1005.8 |
| 20260503194043 | 21 | 314 | 16.1 | 32.2 | 0.00 | 0.00 | 0.00 | 34 | 1005.8 |
| 20260503193944 | 21 | 320 | 16.1 | 32.2 | 0.00 | 0.00 | 0.00 | 35 | 1005.9 |
| 20260503193844 | 21 | 326 | 16.1 | 32.2 | 0.00 | 0.00 | 0.00 | 35 | 1005.9 |
| 20260503193743 | 21 | 331 | 17.7 | 32.2 | 0.00 | 0.00 | 0.00 | 35 | 1005.8 |
| 20260503193644 | 21 | 333 | 17.7 | 33.8 | 0.00 | 0.00 | 0.00 | 35 | 1005.8 |
| 20260503193544 | 21 | 332 | 17.7 | 38.6 | 0.00 | 0.00 | 0.00 | 37 | 1005.8 |
| 20260503193443 | 21 | 331 | 17.7 | 38.6 | 0.00 | 0.00 | 0.00 | 36 | 1005.8 |
| 20260503193343 | 21 | 330 | 17.7 | 38.6 | 0.00 | 0.00 | 0.00 | 33 | 1005.8 |
| 20260503193244 | 21 | 330 | 17.7 | 38.6 | 0.00 | 0.00 | 0.00 | 34 | 1005.8 |
| 20260503193143 | 21 | 329 | 19.3 | 38.6 | 0.00 | 0.00 | 0.00 | 36 | 1005.8 |
| 20260503193043 | 21 | 327 | 19.3 | 38.6 | 0.00 | 0.00 | 0.00 | 35 | 1005.8 |
| 20260503192944 | 21 | 324 | 19.3 | 38.6 | 0.00 | 0.00 | 0.00 | 35 | 1005.9 |
| 20260503192843 | 21 | 320 | 19.3 | 38.6 | 0.00 | 0.00 | 0.00 | 36 | 1005.8 |
| 20260503192743 | 21 | 318 | 17.7 | 38.6 | 0.00 | 0.00 | 0.00 | 34 | 1005.9 |
| 20260503192644 | 21 | 318 | 16.1 | 38.6 | 0.00 | 0.00 | 0.00 | 35 | 1005.8 |
| 20260503192544 | 21 | 319 | 16.1 | 32.2 | 0.00 | 0.00 | 0.00 | 36 | 1005.9 |
| 20260503192443 | 21 | 321 | 16.1 | 32.2 | 0.00 | 0.00 | 0.00 | 35 | 1005.9 |
| 20260503192343 | 21 | 324 | 16.1 | 32.2 | 0.00 | 0.00 | 0.00 | 35 | 1005.9 |
| 20260503192244 | 21 | 326 | 16.1 | 32.2 | 0.00 | 0.00 | 0.00 | 35 | 1005.9 |
| 20260503192143 | 21 | 324 | 16.1 | 32.2 | 0.00 | 0.00 | 0.00 | 35 | 1005.9 |
| 20260503192043 | 21 | 326 | 16.1 | 32.2 | 0.00 | 0.00 | 0.00 | 36 | 1005.9 |
| 20260503191943 | 21 | 330 | 16.1 | 29.0 | 0.00 | 0.00 | 0.00 | 37 | 1005.8 |
| 20260503191844 | 21 | 330 | 16.1 | 29.0 | 0.00 | 0.00 | 0.00 | 36 | 1005.8 |
| 20260503191743 | 21 | 330 | 16.1 | 29.0 | 0.00 | 0.00 | 0.00 | 36 | 1005.9 |
| 20260503191643 | 21 | 330 | 16.1 | 29.0 | 0.00 | 0.00 | 0.00 | 36 | 1005.9 |
| 20260503191545 | 21 | 330 | 16.1 | 29.0 | 0.00 | 0.00 | 0.00 | 37 | 1006.0 |
| 20260503191444 | 21 | 331 | 16.1 | 29.0 | 0.00 | 0.00 | 0.00 | 36 | 1006.0 |
| 20260503191343 | 21 | 332 | 16.1 | 29.0 | 0.00 | 0.00 | 0.00 | 36 | 1006.0 |
| 20260503191243 | 21 | 332 | 16.1 | 29.0 | 0.00 | 0.00 | 0.00 | 38 | 1006.0 |
| 20260503191144 | 21 | 335 | 16.1 | 29.0 | 0.00 | 0.00 | 0.00 | 36 | 1006.0 |
| 20260503191044 | 21 | 334 | 16.1 | 29.0 | 0.00 | 0.00 | 0.00 | 36 | 1005.9 |
| 20260503190943 | 21 | 334 | 16.1 | 29.0 | 0.00 | 0.00 | 0.00 | 38 | 1005.9 |
| 20260503190843 | 20 | 338 | 16.1 | 29.0 | 0.00 | 0.00 | 0.00 | 38 | 1005.9 |
| 20260503190744 | 20 | 339 | 16.1 | 29.0 | 0.00 | 0.00 | 0.00 | 38 | 1005.9 |
| 20260503190643 | 20 | 339 | 16.1 | 29.0 | 0.00 | 0.00 | 0.00 | 38 | 1005.9 |
| 20260503190543 | 20 | 339 | 16.1 | 29.0 | 0.00 | 0.00 | 0.00 | 38 | 1006.0 |
| 20260503190443 | 20 | 339 | 16.1 | 29.0 | 0.00 | 0.00 | 0.00 | 40 | 1006.0 |
| 20260503190344 | 20 | 340 | 16.1 | 29.0 | 0.00 | 0.00 | 0.00 | 37 | 1006.0 |
| 20260503190243 | 21 | 338 | 16.1 | 29.0 | 0.00 | 0.00 | 0.00 | 38 | 1006.1 |
| 20260503190143 | 21 | 335 | 16.1 | 27.4 | 0.00 | 0.00 | 0.00 | 38 | 1006.0 |
| 20260503190043 | 21 | 334 | 14.5 | 27.4 | 0.00 | 0.00 | 0.00 | 38 | 1005.8 |
| 20260503185944 | 21 | 332 | 14.5 | 25.7 | 0.00 | 0.00 | 0.00 | 40 | 1005.8 |
| 20260503185844 | 20 | 330 | 12.9 | 25.7 | 0.00 | 0.00 | 0.00 | 39 | 1005.8 |
| 20260503185743 | 21 | 326 | 14.5 | 25.7 | 0.00 | 0.00 | 0.00 | 38 | 1005.8 |
| 20260503185644 | 21 | 325 | 14.5 | 25.7 | 0.00 | 0.00 | 0.00 | 38 | 1005.9 |
| 20260503185544 | 21 | 327 | 14.5 | 25.7 | 0.00 | 0.00 | 0.00 | 36 | 1005.8 |
| 20260503185443 | 21 | 326 | 12.9 | 25.7 | 0.00 | 0.00 | 0.00 | 38 | 1005.9 |
| 20260503185343 | 21 | 326 | 12.9 | 25.7 | 0.00 | 0.00 | 0.00 | 40 | 1005.9 |
| 20260503185244 | 21 | 329 | 14.5 | 32.2 | 0.00 | 0.00 | 0.00 | 40 | 1005.9 |
| 20260503185143 | 21 | 331 | 16.1 | 32.2 | 0.00 | 0.00 | 0.00 | 38 | 1005.9 |
| 20260503185043 | 21 | 334 | 16.1 | 32.2 | 0.00 | 0.00 | 0.00 | 39 | 1005.9 |
| 20260503184943 | 21 | 335 | 16.1 | 32.2 | 0.00 | 0.00 | 0.00 | 38 | 1005.9 |
| 20260503184844 | 21 | 338 | 17.7 | 32.2 | 0.00 | 0.00 | 0.00 | 39 | 1005.9 |
| 20260503184743 | 21 | 341 | 16.1 | 32.2 | 0.00 | 0.00 | 0.00 | 38 | 1005.8 |
| 20260503184644 | 21 | 341 | 17.7 | 32.2 | 0.00 | 0.00 | 0.00 | 38 | 1005.8 |
| 20260503184544 | 20 | 341 | 17.7 | 32.2 | 0.00 | 0.00 | 0.00 | 38 | 1005.9 |
| 20260503184443 | 20 | 341 | 17.7 | 32.2 | 0.00 | 0.00 | 0.00 | 37 | 1005.8 |
| 20260503184344 | 20 | 340 | 17.7 | 32.2 | 0.00 | 0.00 | 0.00 | 36 | 1005.8 |
| 20260503184243 | 20 | 339 | 16.1 | 30.6 | 0.00 | 0.00 | 0.00 | 36 | 1005.8 |
| 20260503184143 | 20 | 341 | 16.1 | 33.8 | 0.00 | 0.00 | 0.00 | 38 | 1005.8 |
| 20260503184044 | 20 | 339 | 16.1 | 33.8 | 0.00 | 0.00 | 0.00 | 39 | 1005.9 |
| 20260503183943 | 20 | 338 | 16.1 | 33.8 | 0.00 | 0.00 | 0.00 | 38 | 1005.9 |
| 20260503183843 | 20 | 337 | 17.7 | 33.8 | 0.00 | 0.00 | 0.00 | 38 | 1005.9 |
| 20260503183744 | 20 | 338 | 17.7 | 33.8 | 0.00 | 0.00 | 0.00 | 38 | 1006.0 |
| 20260503183643 | 20 | 336 | 17.7 | 33.8 | 0.00 | 0.00 | 0.00 | 38 | 1006.0 |
| 20260503183543 | 21 | 335 | 17.7 | 33.8 | 0.00 | 0.00 | 0.00 | 37 | 1005.9 |
| 20260503183444 | 21 | 335 | 17.7 | 33.8 | 0.00 | 0.00 | 0.00 | 39 | 1005.9 |
| 20260503183343 | 20 | 335 | 17.7 | 33.8 | 0.00 | 0.00 | 0.00 | 39 | 1005.9 |
| 20260503183243 | 20 | 336 | 17.7 | 33.8 | 0.00 | 0.00 | 0.00 | 38 | 1006.0 |
| 20260503183144 | 20 | 335 | 17.7 | 30.6 | 0.00 | 0.00 | 0.00 | 38 | 1005.9 |
| 20260503183043 | 20 | 335 | 17.7 | 30.6 | 0.00 | 0.00 | 0.00 | 38 | 1005.9 |
| 20260503182943 | 20 | 337 | 17.7 | 30.6 | 0.00 | 0.00 | 0.00 | 37 | 1006.0 |
| 20260503182844 | 20 | 337 | 17.7 | 30.6 | 0.00 | 0.00 | 0.00 | 38 | 1006.0 |
| 20260503182744 | 20 | 338 | 17.7 | 30.6 | 0.00 | 0.00 | 0.00 | 37 | 1006.0 |
| 20260503182643 | 20 | 341 | 16.1 | 27.4 | 0.00 | 0.00 | 0.00 | 37 | 1006.0 |
| 20260503182543 | 20 | 342 | 16.1 | 27.4 | 0.00 | 0.00 | 0.00 | 37 | 1006.1 |
| 20260503182444 | 20 | 343 | 16.1 | 27.4 | 0.00 | 0.00 | 0.00 | 37 | 1006.1 |
| 20260503182344 | 20 | 344 | 16.1 | 27.4 | 0.00 | 0.00 | 0.00 | 38 | 1006.1 |
| 20260503182243 | 20 | 343 | 16.1 | 27.4 | 0.00 | 0.00 | 0.00 | 37 | 1006.0 |
| 20260503182144 | 20 | 344 | 16.1 | 29.0 | 0.00 | 0.00 | 0.00 | 39 | 1006.1 |
| 20260503182043 | 20 | 343 | 17.7 | 33.8 | 0.00 | 0.00 | 0.00 | 39 | 1006.1 |
| 20260503181943 | 20 | 342 | 17.7 | 35.4 | 0.00 | 0.00 | 0.00 | 38 | 1006.0 |
| 20260503181843 | 20 | 342 | 19.3 | 35.4 | 0.00 | 0.00 | 0.00 | 38 | 1005.9 |
| 20260503181743 | 20 | 340 | 20.9 | 35.4 | 0.00 | 0.00 | 0.00 | 40 | 1005.9 |
| 20260503181643 | 20 | 339 | 20.9 | 35.4 | 0.00 | 0.00 | 0.00 | 38 | 1006.1 |
| 20260503181543 | 20 | 339 | 20.9 | 35.4 | 0.00 | 0.00 | 0.00 | 38 | 1006.1 |
| 20260503181443 | 20 | 337 | 20.9 | 35.4 | 0.00 | 0.00 | 0.00 | 37 | 1006.1 |
| 20260503181343 | 20 | 337 | 20.9 | 35.4 | 0.00 | 0.00 | 0.00 | 37 | 1006.2 |
| 20260503181243 | 20 | 337 | 22.5 | 35.4 | 0.00 | 0.00 | 0.00 | 36 | 1006.2 |
| 20260503181143 | 20 | 336 | 22.5 | 35.4 | 0.00 | 0.00 | 0.00 | 35 | 1006.2 |
| 20260503181043 | 20 | 335 | 20.9 | 35.4 | 0.00 | 0.00 | 0.00 | 35 | 1006.1 |
| 20260503180943 | 20 | 333 | 20.9 | 32.2 | 0.00 | 0.00 | 0.00 | 36 | 1006.2 |
| 20260503180843 | 20 | 333 | 19.3 | 30.6 | 0.00 | 0.00 | 0.00 | 37 | 1006.2 |
| 20260503180744 | 20 | 332 | 17.7 | 30.6 | 0.00 | 0.00 | 0.00 | 37 | 1006.2 |
| 20260503180643 | 20 | 332 | 17.7 | 30.6 | 0.00 | 0.00 | 0.00 | 37 | 1006.3 |
| 20260503180543 | 20 | 332 | 17.7 | 32.2 | 0.00 | 0.00 | 0.00 | 38 | 1006.3 |
| 20260503180443 | 20 | 332 | 19.3 | 32.2 | 0.00 | 0.00 | 0.00 | 36 | 1006.3 |
| 20260503180343 | 20 | 333 | 19.3 | 32.2 | 0.00 | 0.00 | 0.00 | 36 | 1006.3 |
| 20260503180243 | 20 | 334 | 19.3 | 32.2 | 0.00 | 0.00 | 0.00 | 35 | 1006.3 |
| 20260503180143 | 20 | 334 | 19.3 | 32.2 | 0.00 | 0.00 | 0.00 | 38 | 1006.3 |
| 20260503180044 | 20 | 336 | 19.3 | 32.2 | 0.00 | 0.00 | 0.00 | 37 | 1006.2 |
| 20260503175943 | 20 | 338 | 19.3 | 32.2 | 0.00 | 0.00 | 0.00 | 38 | 1006.2 |
| 20260503175843 | 20 | 339 | 19.3 | 32.2 | 0.00 | 0.00 | 0.00 | 39 | 1006.4 |
| 20260503175743 | 20 | 338 | 19.3 | 32.2 | 0.00 | 0.00 | 0.00 | 38 | 1006.4 |
| 20260503175643 | 20 | 339 | 19.3 | 32.2 | 0.00 | 0.00 | 0.00 | 38 | 1006.4 |
| 20260503175543 | 20 | 337 | 19.3 | 32.2 | 0.00 | 0.00 | 0.00 | 37 | 1006.4 |
| 20260503175443 | 20 | 334 | 17.7 | 32.2 | 0.00 | 0.00 | 0.00 | 38 | 1006.4 |
| 20260503175343 | 20 | 331 | 17.7 | 32.2 | 0.00 | 0.00 | 0.00 | 37 | 1006.4 |
| 20260503175243 | 20 | 330 | 17.7 | 32.2 | 0.00 | 0.00 | 0.00 | 36 | 1006.4 |
| 20260503175143 | 20 | 329 | 17.7 | 32.2 | 0.00 | 0.00 | 0.00 | 37 | 1006.4 |
| 20260503175043 | 20 | 327 | 16.1 | 32.2 | 0.00 | 0.00 | 0.00 | 37 | 1006.4 |
| 20260503174943 | 20 | 327 | 16.1 | 32.2 | 0.00 | 0.00 | 0.00 | 38 | 1006.4 |
| 20260503174843 | 20 | 327 | 17.7 | 32.2 | 0.00 | 0.00 | 0.00 | 37 | 1006.4 |
| 20260503174743 | 20 | 324 | 17.7 | 32.2 | 0.00 | 0.00 | 0.00 | 39 | 1006.3 |
| 20260503174643 | 20 | 323 | 16.1 | 30.6 | 0.00 | 0.00 | 0.00 | 38 | 1006.3 |
| 20260503174544 | 20 | 324 | 16.1 | 30.6 | 0.00 | 0.00 | 0.00 | 38 | 1006.4 |
| 20260503174442 | 20 | 326 | 16.1 | 30.6 | 0.00 | 0.00 | 0.00 | 39 | 1006.3 |
| 20260503174343 | 20 | 329 | 16.1 | 30.6 | 0.00 | 0.00 | 0.00 | 39 | 1006.3 |
| 20260503174243 | 20 | 329 | 16.1 | 30.6 | 0.00 | 0.00 | 0.00 | 40 | 1006.3 |
| 20260503174143 | 20 | 331 | 16.1 | 30.6 | 0.00 | 0.00 | 0.00 | 39 | 1006.4 |
| 20260503174043 | 20 | 332 | 16.1 | 30.6 | 0.00 | 0.00 | 0.00 | 37 | 1006.4 |
| 20260503173943 | 20 | 332 | 16.1 | 30.6 | 0.00 | 0.00 | 0.00 | 38 | 1006.4 |
| 20260503173843 | 20 | 331 | 16.1 | 27.4 | 0.00 | 0.00 | 0.00 | 40 | 1006.4 |
| 20260503173743 | 20 | 334 | 16.1 | 27.4 | 0.00 | 0.00 | 0.00 | 41 | 1006.4 |
| 20260503173643 | 20 | 336 | 16.1 | 27.4 | 0.00 | 0.00 | 0.00 | 40 | 1006.4 |
| 20260503173543 | 19 | 336 | 16.1 | 27.4 | 0.00 | 0.00 | 0.00 | 41 | 1006.4 |
| 20260503173442 | 19 | 338 | 17.7 | 27.4 | 0.00 | 0.00 | 0.00 | 40 | 1006.2 |
| 20260503173343 | 19 | 338 | 16.1 | 27.4 | 0.00 | 0.00 | 0.00 | 40 | 1006.4 |
| 20260503173243 | 19 | 338 | 17.7 | 30.6 | 0.00 | 0.00 | 0.00 | 42 | 1006.4 |
| 20260503173143 | 19 | 337 | 17.7 | 30.6 | 0.00 | 0.00 | 0.00 | 41 | 1006.4 |
| 20260503173043 | 19 | 338 | 19.3 | 30.6 | 0.00 | 0.00 | 0.00 | 40 | 1006.4 |
| 20260503172943 | 19 | 339 | 19.3 | 30.6 | 0.00 | 0.00 | 0.00 | 40 | 1006.4 |
| 20260503172843 | 19 | 339 | 19.3 | 30.6 | 0.00 | 0.00 | 0.00 | 39 | 1006.4 |
| 20260503172643 | 19 | 340 | 20.9 | 30.6 | 0.00 | 0.00 | 0.00 | 40 | 1006.5 |
| 20260503172543 | 19 | 341 | 20.9 | 30.6 | 0.00 | 0.00 | 0.00 | 40 | 1006.5 |
| 20260503172443 | 19 | 341 | 20.9 | 30.6 | 0.00 | 0.00 | 0.00 | 40 | 1006.5 |
| 20260503172342 | 19 | 340 | 20.9 | 33.8 | 0.00 | 0.00 | 0.00 | 39 | 1006.5 |
| 20260503172244 | 19 | 341 | 20.9 | 33.8 | 0.00 | 0.00 | 0.00 | 39 | 1006.5 |
| 20260503172143 | 19 | 341 | 20.9 | 33.8 | 0.00 | 0.00 | 0.00 | 40 | 1006.5 |
| 20260503172043 | 19 | 341 | 19.3 | 33.8 | 0.00 | 0.00 | 0.00 | 40 | 1006.5 |
| 20260503171943 | 19 | 340 | 19.3 | 33.8 | 0.00 | 0.00 | 0.00 | 40 | 1006.5 |
| 20260503171844 | 19 | 340 | 19.3 | 33.8 | 0.00 | 0.00 | 0.00 | 39 | 1006.5 |
| 20260503171743 | 19 | 339 | 19.3 | 33.8 | 0.00 | 0.00 | 0.00 | 40 | 1006.5 |
| 20260503171643 | 19 | 338 | 17.7 | 33.8 | 0.00 | 0.00 | 0.00 | 40 | 1006.4 |
| 20260503171543 | 19 | 338 | 17.7 | 33.8 | 0.00 | 0.00 | 0.00 | 40 | 1006.3 |
| 20260503171443 | 19 | 339 | 17.7 | 33.8 | 0.00 | 0.00 | 0.00 | 41 | 1006.4 |
| 20260503171343 | 19 | 341 | 17.7 | 33.8 | 0.00 | 0.00 | 0.00 | 40 | 1006.4 |
| 20260503171243 | 19 | 343 | 17.7 | 33.8 | 0.00 | 0.00 | 0.00 | 42 | 1006.4 |
| 20260503171143 | 19 | 343 | 17.7 | 33.8 | 0.00 | 0.00 | 0.00 | 43 | 1006.4 |
| 20260503171043 | 19 | 342 | 17.7 | 33.8 | 0.00 | 0.00 | 0.00 | 43 | 1006.4 |
| 20260503170943 | 18 | 343 | 17.7 | 33.8 | 0.00 | 0.00 | 0.00 | 42 | 1006.4 |
| 20260503170843 | 19 | 343 | 17.7 | 33.8 | 0.00 | 0.00 | 0.00 | 41 | 1006.5 |
| 20260503170743 | 19 | 342 | 17.7 | 33.8 | 0.00 | 0.00 | 0.00 | 41 | 1006.5 |
| 20260503170644 | 19 | 341 | 17.7 | 33.8 | 0.00 | 0.00 | 0.00 | 42 | 1006.5 |
| 20260503170543 | 19 | 341 | 17.7 | 33.8 | 0.00 | 0.00 | 0.00 | 41 | 1006.4 |
| 20260503170443 | 19 | 340 | 17.7 | 33.8 | 0.00 | 0.00 | 0.00 | 42 | 1006.4 |
| 20260503170343 | 19 | 339 | 17.7 | 33.8 | 0.00 | 0.00 | 0.00 | 43 | 1006.4 |
| 20260503170243 | 19 | 337 | 17.7 | 33.8 | 0.00 | 0.00 | 0.00 | 42 | 1006.5 |
| 20260503170143 | 19 | 336 | 17.7 | 33.8 | 0.00 | 0.00 | 0.00 | 42 | 1006.5 |
| 20260503160142 | 17 | 340 | 17.7 | 30.6 | 0.00 | 0.00 | 0.00 | 46 | 1006.4 |
| 20260503150942 | 15 | 337 | 16.1 | 27.4 | 0.00 | 0.00 | 0.00 | 53 | 1005.9 |
| 20260503150843 | 15 | 338 | 16.1 | 27.4 | 0.00 | 0.00 | 0.00 | 53 | 1005.9 |
| 20260503150743 | 15 | 338 | 16.1 | 27.4 | 0.00 | 0.00 | 0.00 | 55 | 1005.9 |
| 20260503150642 | 15 | 338 | 16.1 | 27.4 | 0.00 | 0.00 | 0.00 | 54 | 1005.9 |
| 20260503150542 | 15 | 337 | 16.1 | 27.4 | 0.00 | 0.00 | 0.00 | 54 | 1005.9 |
| 20260503150442 | 15 | 337 | 16.1 | 27.4 | 0.00 | 0.00 | 0.00 | 55 | 1005.9 |
| 20260503150343 | 15 | 337 | 16.1 | 27.4 | 0.00 | 0.00 | 0.00 | 54 | 1005.9 |
| 20260503150243 | 15 | 337 | 16.1 | 27.4 | 0.00 | 0.00 | 0.00 | 55 | 1005.8 |
| 20260503150142 | 15 | 337 | 17.7 | 27.4 | 0.00 | 0.00 | 0.00 | 55 | 1005.9 |
| 20260503140243 | 13 | 307 | 12.9 | 20.9 | 0.00 | 0.00 | 0.00 | 59 | 1005.6 |
| 20260503140142 | 13 | 311 | 11.3 | 20.9 | 0.00 | 0.00 | 0.00 | 59 | 1005.6 |
| 20260503131341 | 13 | 265 | 16.1 | 22.5 | 0.00 | 0.00 | 0.00 | 58 | 1005.3 |
| 20260503131242 | 13 | 263 | 16.1 | 22.5 | 0.00 | 0.00 | 0.00 | 57 | 1005.4 |
| 20260503131142 | 13 | 262 | 16.1 | 22.5 | 0.00 | 0.00 | 0.00 | 57 | 1005.3 |
| 20260503131042 | 13 | 261 | 16.1 | 22.5 | 0.00 | 0.00 | 0.00 | 58 | 1005.3 |
| 20260503130941 | 12 | 260 | 16.1 | 22.5 | 0.00 | 0.00 | 0.00 | 57 | 1005.3 |
| 20260503130843 | 12 | 260 | 16.1 | 22.5 | 0.00 | 0.00 | 0.00 | 57 | 1005.3 |
| 20260503130742 | 12 | 259 | 16.1 | 22.5 | 0.00 | 0.00 | 0.00 | 57 | 1005.3 |
| 20260503130642 | 12 | 258 | 16.1 | 22.5 | 0.00 | 0.00 | 0.00 | 56 | 1005.3 |
| 20260503130542 | 12 | 257 | 16.1 | 22.5 | 0.00 | 0.00 | 0.00 | 56 | 1005.3 |
| 20260503130442 | 12 | 258 | 16.1 | 22.5 | 0.00 | 0.00 | 0.00 | 56 | 1005.3 |
| 20260503130342 | 12 | 256 | 16.1 | 22.5 | 0.00 | 0.00 | 0.00 | 57 | 1005.3 |
| 20260503130242 | 12 | 254 | 16.1 | 22.5 | 0.00 | 0.00 | 0.00 | 56 | 1005.2 |
| 20260503130142 | 12 | 252 | 17.7 | 24.1 | 0.00 | 0.00 | 0.00 | 55 | 1005.2 |
| 20260503120142 | 11 | 229 | 16.1 | 27.4 | 0.00 | 0.00 | 0.00 | 57 | 1004.7 |
| 20260503110742 | 11 | 216 | 17.7 | 24.1 | 0.00 | 0.00 | 0.00 | 57 | 1004.6 |
| 20260503110642 | 11 | 215 | 17.7 | 22.5 | 0.00 | 0.00 | 0.00 | 57 | 1004.6 |
| 20260503110541 | 11 | 215 | 17.7 | 22.5 | 0.00 | 0.00 | 0.00 | 57 | 1004.6 |
| 20260503110441 | 11 | 215 | 17.7 | 22.5 | 0.00 | 0.00 | 0.00 | 57 | 1004.6 |
| 20260503110341 | 11 | 215 | 17.7 | 22.5 | 0.00 | 0.00 | 0.00 | 57 | 1004.6 |
| 20260503110242 | 11 | 216 | 17.7 | 25.7 | 0.00 | 0.00 | 0.00 | 56 | 1004.6 |
| 20260503110142 | 11 | 215 | 17.7 | 25.7 | 0.00 | 0.00 | 0.00 | 56 | 1004.6 |